<?xml version="1.0" encoding="UTF-8" standalone="no" ?>
<gpx xmlns="http://www.topografix.com/GPX/1/1" xmlns:xsi="http://www.w3.org/2001/XMLSchema-instance" xsi:schemaLocation="http://www.topografix.com/GPX/1/1 http://www.topografix.com/GPX/1/1/gpx.xsd" version="1.1" creator="VisuGPX - https://www.visugpx.com">
  <metadata>
    <name>randonnéé matinale</name>
    <desc><![CDATA[avec dédé le fond de gabriel

]]></desc>
  </metadata>
  <trk>
    <name><![CDATA[Tracé actuel: 03 AOU 2018 08:17]]></name>
    <trkseg>
      <trkpt lat="49.63455" lon="4.98064">
        <ele>184.23</ele>
        <time>2018-08-03T06:17:44Z</time>
      </trkpt>
      <trkpt lat="49.63457" lon="4.98064">
        <ele>180.87</ele>
        <time>2018-08-03T06:18:02Z</time>
      </trkpt>
      <trkpt lat="49.63461" lon="4.98072">
        <ele>177.98</ele>
        <time>2018-08-03T06:18:20Z</time>
      </trkpt>
      <trkpt lat="49.63462" lon="4.98077">
        <ele>178.94</ele>
        <time>2018-08-03T06:18:32Z</time>
      </trkpt>
      <trkpt lat="49.63465" lon="4.98082">
        <ele>178.46</ele>
        <time>2018-08-03T06:18:51Z</time>
      </trkpt>
      <trkpt lat="49.63467" lon="4.98083">
        <ele>179.42</ele>
        <time>2018-08-03T06:19:02Z</time>
      </trkpt>
      <trkpt lat="49.63467" lon="4.98084">
        <ele>179.42</ele>
        <time>2018-08-03T06:19:24Z</time>
      </trkpt>
      <trkpt lat="49.63469" lon="4.98088">
        <ele>179.9</ele>
        <time>2018-08-03T06:19:37Z</time>
      </trkpt>
      <trkpt lat="49.63472" lon="4.98092">
        <ele>180.38</ele>
        <time>2018-08-03T06:19:52Z</time>
      </trkpt>
      <trkpt lat="49.63477" lon="4.98096">
        <ele>180.38</ele>
        <time>2018-08-03T06:20:09Z</time>
      </trkpt>
      <trkpt lat="49.6348" lon="4.98096">
        <ele>183.27</ele>
        <time>2018-08-03T06:20:31Z</time>
      </trkpt>
      <trkpt lat="49.63481" lon="4.98099">
        <ele>183.75</ele>
        <time>2018-08-03T06:20:47Z</time>
      </trkpt>
      <trkpt lat="49.63482" lon="4.981">
        <ele>183.75</ele>
        <time>2018-08-03T06:20:50Z</time>
      </trkpt>
      <trkpt lat="49.63485" lon="4.98115">
        <ele>185.67</ele>
        <time>2018-08-03T06:21:03Z</time>
      </trkpt>
      <trkpt lat="49.63487" lon="4.98119">
        <ele>185.67</ele>
        <time>2018-08-03T06:21:11Z</time>
      </trkpt>
      <trkpt lat="49.63491" lon="4.98134">
        <ele>184.23</ele>
        <time>2018-08-03T06:21:23Z</time>
      </trkpt>
      <trkpt lat="49.63484" lon="4.98152">
        <ele>184.71</ele>
        <time>2018-08-03T06:21:37Z</time>
      </trkpt>
      <trkpt lat="49.63478" lon="4.98166">
        <ele>185.67</ele>
        <time>2018-08-03T06:21:49Z</time>
      </trkpt>
      <trkpt lat="49.63473" lon="4.98183">
        <ele>186.63</ele>
        <time>2018-08-03T06:22:02Z</time>
      </trkpt>
      <trkpt lat="49.63469" lon="4.982">
        <ele>190</ele>
        <time>2018-08-03T06:22:14Z</time>
      </trkpt>
      <trkpt lat="49.63464" lon="4.98216">
        <ele>190.96</ele>
        <time>2018-08-03T06:22:27Z</time>
      </trkpt>
      <trkpt lat="49.63455" lon="4.98229">
        <ele>190.96</ele>
        <time>2018-08-03T06:22:39Z</time>
      </trkpt>
      <trkpt lat="49.63447" lon="4.98242">
        <ele>188.08</ele>
        <time>2018-08-03T06:22:50Z</time>
      </trkpt>
      <trkpt lat="49.6344" lon="4.98255">
        <ele>187.59</ele>
        <time>2018-08-03T06:23:02Z</time>
      </trkpt>
      <trkpt lat="49.63429" lon="4.98267">
        <ele>188.56</ele>
        <time>2018-08-03T06:23:14Z</time>
      </trkpt>
      <trkpt lat="49.6342" lon="4.9828">
        <ele>189.52</ele>
        <time>2018-08-03T06:23:26Z</time>
      </trkpt>
      <trkpt lat="49.6341" lon="4.98295">
        <ele>191.92</ele>
        <time>2018-08-03T06:23:40Z</time>
      </trkpt>
      <trkpt lat="49.63399" lon="4.98305">
        <ele>194.8</ele>
        <time>2018-08-03T06:23:53Z</time>
      </trkpt>
      <trkpt lat="49.63389" lon="4.98313">
        <ele>196.73</ele>
        <time>2018-08-03T06:24:06Z</time>
      </trkpt>
      <trkpt lat="49.63388" lon="4.98316">
        <ele>197.69</ele>
        <time>2018-08-03T06:24:17Z</time>
      </trkpt>
      <trkpt lat="49.63382" lon="4.98321">
        <ele>197.21</ele>
        <time>2018-08-03T06:24:29Z</time>
      </trkpt>
      <trkpt lat="49.63378" lon="4.98324">
        <ele>197.21</ele>
        <time>2018-08-03T06:24:33Z</time>
      </trkpt>
      <trkpt lat="49.63365" lon="4.98333">
        <ele>198.17</ele>
        <time>2018-08-03T06:24:46Z</time>
      </trkpt>
      <trkpt lat="49.63355" lon="4.98341">
        <ele>198.65</ele>
        <time>2018-08-03T06:24:58Z</time>
      </trkpt>
      <trkpt lat="49.63345" lon="4.98347">
        <ele>199.61</ele>
        <time>2018-08-03T06:25:08Z</time>
      </trkpt>
      <trkpt lat="49.63344" lon="4.98348">
        <ele>199.61</ele>
        <time>2018-08-03T06:25:09Z</time>
      </trkpt>
      <trkpt lat="49.63341" lon="4.98349">
        <ele>200.57</ele>
        <time>2018-08-03T06:25:13Z</time>
      </trkpt>
      <trkpt lat="49.63331" lon="4.98352">
        <ele>200.57</ele>
        <time>2018-08-03T06:25:24Z</time>
      </trkpt>
      <trkpt lat="49.6333" lon="4.98352">
        <ele>200.57</ele>
        <time>2018-08-03T06:25:25Z</time>
      </trkpt>
      <trkpt lat="49.63316" lon="4.98346">
        <ele>202.01</ele>
        <time>2018-08-03T06:25:38Z</time>
      </trkpt>
      <trkpt lat="49.63316" lon="4.98346">
        <ele>202.49</ele>
        <time>2018-08-03T06:25:39Z</time>
      </trkpt>
      <trkpt lat="49.63308" lon="4.98344">
        <ele>203.94</ele>
        <time>2018-08-03T06:25:46Z</time>
      </trkpt>
      <trkpt lat="49.63295" lon="4.98345">
        <ele>204.9</ele>
        <time>2018-08-03T06:25:57Z</time>
      </trkpt>
      <trkpt lat="49.63285" lon="4.98344">
        <ele>206.34</ele>
        <time>2018-08-03T06:26:06Z</time>
      </trkpt>
      <trkpt lat="49.63276" lon="4.98345">
        <ele>207.3</ele>
        <time>2018-08-03T06:26:19Z</time>
      </trkpt>
      <trkpt lat="49.6327" lon="4.98343">
        <ele>207.3</ele>
        <time>2018-08-03T06:26:29Z</time>
      </trkpt>
      <trkpt lat="49.63258" lon="4.98343">
        <ele>205.38</ele>
        <time>2018-08-03T06:26:41Z</time>
      </trkpt>
      <trkpt lat="49.63247" lon="4.98339">
        <ele>203.94</ele>
        <time>2018-08-03T06:26:50Z</time>
      </trkpt>
      <trkpt lat="49.63232" lon="4.98339">
        <ele>205.38</ele>
        <time>2018-08-03T06:27:04Z</time>
      </trkpt>
      <trkpt lat="49.63228" lon="4.98339">
        <ele>205.86</ele>
        <time>2018-08-03T06:27:08Z</time>
      </trkpt>
      <trkpt lat="49.63216" lon="4.98336">
        <ele>208.26</ele>
        <time>2018-08-03T06:27:18Z</time>
      </trkpt>
      <trkpt lat="49.63212" lon="4.98336">
        <ele>208.74</ele>
        <time>2018-08-03T06:27:22Z</time>
      </trkpt>
      <trkpt lat="49.632" lon="4.98336">
        <ele>207.78</ele>
        <time>2018-08-03T06:27:35Z</time>
      </trkpt>
      <trkpt lat="49.63187" lon="4.98333">
        <ele>208.74</ele>
        <time>2018-08-03T06:27:48Z</time>
      </trkpt>
      <trkpt lat="49.63176" lon="4.9833">
        <ele>207.3</ele>
        <time>2018-08-03T06:27:59Z</time>
      </trkpt>
      <trkpt lat="49.63163" lon="4.9833">
        <ele>210.19</ele>
        <time>2018-08-03T06:28:12Z</time>
      </trkpt>
      <trkpt lat="49.63152" lon="4.98333">
        <ele>210.67</ele>
        <time>2018-08-03T06:28:23Z</time>
      </trkpt>
      <trkpt lat="49.63137" lon="4.9833">
        <ele>212.11</ele>
        <time>2018-08-03T06:28:37Z</time>
      </trkpt>
      <trkpt lat="49.63132" lon="4.98329">
        <ele>212.59</ele>
        <time>2018-08-03T06:28:49Z</time>
      </trkpt>
      <trkpt lat="49.63133" lon="4.98329">
        <ele>212.59</ele>
        <time>2018-08-03T06:28:51Z</time>
      </trkpt>
      <trkpt lat="49.63125" lon="4.98332">
        <ele>213.07</ele>
        <time>2018-08-03T06:29:05Z</time>
      </trkpt>
      <trkpt lat="49.63121" lon="4.98332">
        <ele>214.03</ele>
        <time>2018-08-03T06:29:10Z</time>
      </trkpt>
      <trkpt lat="49.63115" lon="4.98332">
        <ele>214.51</ele>
        <time>2018-08-03T06:29:17Z</time>
      </trkpt>
      <trkpt lat="49.63112" lon="4.9833">
        <ele>214.51</ele>
        <time>2018-08-03T06:29:19Z</time>
      </trkpt>
      <trkpt lat="49.631" lon="4.98328">
        <ele>214.99</ele>
        <time>2018-08-03T06:29:33Z</time>
      </trkpt>
      <trkpt lat="49.63083" lon="4.98327">
        <ele>215.47</ele>
        <time>2018-08-03T06:29:46Z</time>
      </trkpt>
      <trkpt lat="49.63073" lon="4.98329">
        <ele>214.99</ele>
        <time>2018-08-03T06:29:56Z</time>
      </trkpt>
      <trkpt lat="49.63067" lon="4.98326">
        <ele>214.03</ele>
        <time>2018-08-03T06:30:02Z</time>
      </trkpt>
      <trkpt lat="49.63061" lon="4.98326">
        <ele>214.99</ele>
        <time>2018-08-03T06:30:07Z</time>
      </trkpt>
      <trkpt lat="49.63047" lon="4.98323">
        <ele>214.51</ele>
        <time>2018-08-03T06:30:20Z</time>
      </trkpt>
      <trkpt lat="49.63044" lon="4.98323">
        <ele>214.51</ele>
        <time>2018-08-03T06:30:23Z</time>
      </trkpt>
      <trkpt lat="49.63031" lon="4.9832">
        <ele>214.99</ele>
        <time>2018-08-03T06:30:36Z</time>
      </trkpt>
      <trkpt lat="49.63021" lon="4.98322">
        <ele>213.07</ele>
        <time>2018-08-03T06:30:44Z</time>
      </trkpt>
      <trkpt lat="49.63011" lon="4.98322">
        <ele>214.51</ele>
        <time>2018-08-03T06:30:56Z</time>
      </trkpt>
      <trkpt lat="49.62997" lon="4.98318">
        <ele>216.91</ele>
        <time>2018-08-03T06:31:09Z</time>
      </trkpt>
      <trkpt lat="49.6299" lon="4.98317">
        <ele>218.36</ele>
        <time>2018-08-03T06:31:17Z</time>
      </trkpt>
      <trkpt lat="49.62988" lon="4.98315">
        <ele>218.84</ele>
        <time>2018-08-03T06:31:19Z</time>
      </trkpt>
      <trkpt lat="49.62981" lon="4.98314">
        <ele>219.32</ele>
        <time>2018-08-03T06:31:25Z</time>
      </trkpt>
      <trkpt lat="49.62979" lon="4.98314">
        <ele>220.28</ele>
        <time>2018-08-03T06:31:27Z</time>
      </trkpt>
      <trkpt lat="49.62964" lon="4.98313">
        <ele>221.24</ele>
        <time>2018-08-03T06:31:41Z</time>
      </trkpt>
      <trkpt lat="49.62948" lon="4.9831">
        <ele>222.2</ele>
        <time>2018-08-03T06:31:55Z</time>
      </trkpt>
      <trkpt lat="49.62936" lon="4.98313">
        <ele>226.53</ele>
        <time>2018-08-03T06:32:07Z</time>
      </trkpt>
      <trkpt lat="49.62923" lon="4.9832">
        <ele>230.37</ele>
        <time>2018-08-03T06:32:19Z</time>
      </trkpt>
      <trkpt lat="49.62911" lon="4.98327">
        <ele>231.33</ele>
        <time>2018-08-03T06:32:32Z</time>
      </trkpt>
      <trkpt lat="49.629" lon="4.98331">
        <ele>232.3</ele>
        <time>2018-08-03T06:32:44Z</time>
      </trkpt>
      <trkpt lat="49.62894" lon="4.98331">
        <ele>233.74</ele>
        <time>2018-08-03T06:32:57Z</time>
      </trkpt>
      <trkpt lat="49.62889" lon="4.98333">
        <ele>234.22</ele>
        <time>2018-08-03T06:33:09Z</time>
      </trkpt>
      <trkpt lat="49.62877" lon="4.98334">
        <ele>237.1</ele>
        <time>2018-08-03T06:33:21Z</time>
      </trkpt>
      <trkpt lat="49.62871" lon="4.98335">
        <ele>238.06</ele>
        <time>2018-08-03T06:33:29Z</time>
      </trkpt>
      <trkpt lat="49.62859" lon="4.98338">
        <ele>239.51</ele>
        <time>2018-08-03T06:33:43Z</time>
      </trkpt>
      <trkpt lat="49.62852" lon="4.98343">
        <ele>239.51</ele>
        <time>2018-08-03T06:34:00Z</time>
      </trkpt>
      <trkpt lat="49.62846" lon="4.98346">
        <ele>237.58</ele>
        <time>2018-08-03T06:34:05Z</time>
      </trkpt>
      <trkpt lat="49.62829" lon="4.98356">
        <ele>232.3</ele>
        <time>2018-08-03T06:34:21Z</time>
      </trkpt>
      <trkpt lat="49.62826" lon="4.98361">
        <ele>234.7</ele>
        <time>2018-08-03T06:34:35Z</time>
      </trkpt>
      <trkpt lat="49.62818" lon="4.98368">
        <ele>236.14</ele>
        <time>2018-08-03T06:34:46Z</time>
      </trkpt>
      <trkpt lat="49.62807" lon="4.98377">
        <ele>239.51</ele>
        <time>2018-08-03T06:35:02Z</time>
      </trkpt>
      <trkpt lat="49.62789" lon="4.98392">
        <ele>240.47</ele>
        <time>2018-08-03T06:35:17Z</time>
      </trkpt>
      <trkpt lat="49.62776" lon="4.98402">
        <ele>240.47</ele>
        <time>2018-08-03T06:35:31Z</time>
      </trkpt>
      <trkpt lat="49.6276" lon="4.98413">
        <ele>243.35</ele>
        <time>2018-08-03T06:35:46Z</time>
      </trkpt>
      <trkpt lat="49.62743" lon="4.98427">
        <ele>246.72</ele>
        <time>2018-08-03T06:36:03Z</time>
      </trkpt>
      <trkpt lat="49.62732" lon="4.98436">
        <ele>248.16</ele>
        <time>2018-08-03T06:36:16Z</time>
      </trkpt>
      <trkpt lat="49.62715" lon="4.98451">
        <ele>248.64</ele>
        <time>2018-08-03T06:36:31Z</time>
      </trkpt>
      <trkpt lat="49.62701" lon="4.98463">
        <ele>247.68</ele>
        <time>2018-08-03T06:36:45Z</time>
      </trkpt>
      <trkpt lat="49.62687" lon="4.98473">
        <ele>248.16</ele>
        <time>2018-08-03T06:36:59Z</time>
      </trkpt>
      <trkpt lat="49.62671" lon="4.98486">
        <ele>247.68</ele>
        <time>2018-08-03T06:37:16Z</time>
      </trkpt>
      <trkpt lat="49.62655" lon="4.985">
        <ele>249.12</ele>
        <time>2018-08-03T06:37:33Z</time>
      </trkpt>
      <trkpt lat="49.6264" lon="4.98513">
        <ele>252</ele>
        <time>2018-08-03T06:37:48Z</time>
      </trkpt>
      <trkpt lat="49.6263" lon="4.98522">
        <ele>251.52</ele>
        <time>2018-08-03T06:38:01Z</time>
      </trkpt>
      <trkpt lat="49.62614" lon="4.98536">
        <ele>251.04</ele>
        <time>2018-08-03T06:38:17Z</time>
      </trkpt>
      <trkpt lat="49.62598" lon="4.98549">
        <ele>251.04</ele>
        <time>2018-08-03T06:38:34Z</time>
      </trkpt>
      <trkpt lat="49.62585" lon="4.98558">
        <ele>251.04</ele>
        <time>2018-08-03T06:38:51Z</time>
      </trkpt>
      <trkpt lat="49.62572" lon="4.98569">
        <ele>252</ele>
        <time>2018-08-03T06:39:06Z</time>
      </trkpt>
      <trkpt lat="49.6256" lon="4.9858">
        <ele>253.44</ele>
        <time>2018-08-03T06:39:20Z</time>
      </trkpt>
      <trkpt lat="49.62555" lon="4.9858">
        <ele>253.93</ele>
        <time>2018-08-03T06:39:35Z</time>
      </trkpt>
      <trkpt lat="49.62555" lon="4.98579">
        <ele>252.96</ele>
        <time>2018-08-03T06:39:55Z</time>
      </trkpt>
      <trkpt lat="49.62555" lon="4.98571">
        <ele>252.48</ele>
        <time>2018-08-03T06:40:07Z</time>
      </trkpt>
      <trkpt lat="49.62555" lon="4.9857">
        <ele>252.48</ele>
        <time>2018-08-03T06:40:08Z</time>
      </trkpt>
      <trkpt lat="49.62551" lon="4.98558">
        <ele>253.44</ele>
        <time>2018-08-03T06:40:23Z</time>
      </trkpt>
      <trkpt lat="49.62549" lon="4.98556">
        <ele>253.44</ele>
        <time>2018-08-03T06:40:25Z</time>
      </trkpt>
      <trkpt lat="49.62546" lon="4.98555">
        <ele>252.96</ele>
        <time>2018-08-03T06:40:28Z</time>
      </trkpt>
      <trkpt lat="49.62539" lon="4.98557">
        <ele>252</ele>
        <time>2018-08-03T06:40:44Z</time>
      </trkpt>
      <trkpt lat="49.62531" lon="4.98558">
        <ele>251.52</ele>
        <time>2018-08-03T06:40:54Z</time>
      </trkpt>
      <trkpt lat="49.62524" lon="4.9856">
        <ele>253.44</ele>
        <time>2018-08-03T06:41:03Z</time>
      </trkpt>
      <trkpt lat="49.62517" lon="4.98559">
        <ele>254.89</ele>
        <time>2018-08-03T06:41:08Z</time>
      </trkpt>
      <trkpt lat="49.62504" lon="4.98555">
        <ele>255.85</ele>
        <time>2018-08-03T06:41:20Z</time>
      </trkpt>
      <trkpt lat="49.62498" lon="4.9855">
        <ele>256.33</ele>
        <time>2018-08-03T06:41:25Z</time>
      </trkpt>
      <trkpt lat="49.62481" lon="4.9854">
        <ele>256.33</ele>
        <time>2018-08-03T06:41:42Z</time>
      </trkpt>
      <trkpt lat="49.62466" lon="4.98528">
        <ele>256.33</ele>
        <time>2018-08-03T06:41:56Z</time>
      </trkpt>
      <trkpt lat="49.62452" lon="4.9852">
        <ele>257.29</ele>
        <time>2018-08-03T06:42:10Z</time>
      </trkpt>
      <trkpt lat="49.62447" lon="4.98518">
        <ele>257.29</ele>
        <time>2018-08-03T06:42:14Z</time>
      </trkpt>
      <trkpt lat="49.62433" lon="4.98504">
        <ele>258.25</ele>
        <time>2018-08-03T06:42:28Z</time>
      </trkpt>
      <trkpt lat="49.62431" lon="4.98503">
        <ele>258.73</ele>
        <time>2018-08-03T06:42:30Z</time>
      </trkpt>
      <trkpt lat="49.62416" lon="4.98493">
        <ele>260.17</ele>
        <time>2018-08-03T06:42:44Z</time>
      </trkpt>
      <trkpt lat="49.62401" lon="4.98484">
        <ele>263.54</ele>
        <time>2018-08-03T06:42:57Z</time>
      </trkpt>
      <trkpt lat="49.62386" lon="4.9847">
        <ele>266.42</ele>
        <time>2018-08-03T06:43:11Z</time>
      </trkpt>
      <trkpt lat="49.62371" lon="4.9846">
        <ele>265.94</ele>
        <time>2018-08-03T06:43:25Z</time>
      </trkpt>
      <trkpt lat="49.62359" lon="4.98453">
        <ele>264.02</ele>
        <time>2018-08-03T06:43:37Z</time>
      </trkpt>
      <trkpt lat="49.62346" lon="4.98447">
        <ele>263.54</ele>
        <time>2018-08-03T06:43:50Z</time>
      </trkpt>
      <trkpt lat="49.62332" lon="4.98434">
        <ele>264.5</ele>
        <time>2018-08-03T06:44:03Z</time>
      </trkpt>
      <trkpt lat="49.62326" lon="4.98429">
        <ele>265.46</ele>
        <time>2018-08-03T06:44:12Z</time>
      </trkpt>
      <trkpt lat="49.62322" lon="4.98426">
        <ele>265.46</ele>
        <time>2018-08-03T06:44:16Z</time>
      </trkpt>
      <trkpt lat="49.6231" lon="4.9841">
        <ele>266.9</ele>
        <time>2018-08-03T06:44:31Z</time>
      </trkpt>
      <trkpt lat="49.62301" lon="4.98391">
        <ele>267.86</ele>
        <time>2018-08-03T06:44:46Z</time>
      </trkpt>
      <trkpt lat="49.62293" lon="4.98373">
        <ele>267.86</ele>
        <time>2018-08-03T06:45:01Z</time>
      </trkpt>
      <trkpt lat="49.62291" lon="4.98369">
        <ele>267.86</ele>
        <time>2018-08-03T06:45:04Z</time>
      </trkpt>
      <trkpt lat="49.62284" lon="4.9836">
        <ele>267.38</ele>
        <time>2018-08-03T06:45:12Z</time>
      </trkpt>
      <trkpt lat="49.62275" lon="4.98344">
        <ele>267.38</ele>
        <time>2018-08-03T06:45:26Z</time>
      </trkpt>
      <trkpt lat="49.62265" lon="4.98329">
        <ele>266.42</ele>
        <time>2018-08-03T06:45:37Z</time>
      </trkpt>
      <trkpt lat="49.6225" lon="4.98318">
        <ele>265.94</ele>
        <time>2018-08-03T06:45:50Z</time>
      </trkpt>
      <trkpt lat="49.6224" lon="4.98311">
        <ele>266.42</ele>
        <time>2018-08-03T06:45:59Z</time>
      </trkpt>
      <trkpt lat="49.62221" lon="4.98301">
        <ele>268.35</ele>
        <time>2018-08-03T06:46:14Z</time>
      </trkpt>
      <trkpt lat="49.62203" lon="4.98292">
        <ele>271.23</ele>
        <time>2018-08-03T06:46:30Z</time>
      </trkpt>
      <trkpt lat="49.62186" lon="4.98287">
        <ele>273.15</ele>
        <time>2018-08-03T06:46:45Z</time>
      </trkpt>
      <trkpt lat="49.62168" lon="4.98281">
        <ele>274.59</ele>
        <time>2018-08-03T06:47:01Z</time>
      </trkpt>
      <trkpt lat="49.62159" lon="4.9828">
        <ele>275.56</ele>
        <time>2018-08-03T06:47:14Z</time>
      </trkpt>
      <trkpt lat="49.62147" lon="4.9828">
        <ele>277</ele>
        <time>2018-08-03T06:47:25Z</time>
      </trkpt>
      <trkpt lat="49.62138" lon="4.98276">
        <ele>277.48</ele>
        <time>2018-08-03T06:47:32Z</time>
      </trkpt>
      <trkpt lat="49.62135" lon="4.98274">
        <ele>277.48</ele>
        <time>2018-08-03T06:47:34Z</time>
      </trkpt>
      <trkpt lat="49.62129" lon="4.9827">
        <ele>277.48</ele>
        <time>2018-08-03T06:47:38Z</time>
      </trkpt>
      <trkpt lat="49.62112" lon="4.98251">
        <ele>276.52</ele>
        <time>2018-08-03T06:47:54Z</time>
      </trkpt>
      <trkpt lat="49.62096" lon="4.98239">
        <ele>277</ele>
        <time>2018-08-03T06:48:08Z</time>
      </trkpt>
      <trkpt lat="49.62094" lon="4.98237">
        <ele>277</ele>
        <time>2018-08-03T06:48:10Z</time>
      </trkpt>
      <trkpt lat="49.62079" lon="4.98232">
        <ele>277</ele>
        <time>2018-08-03T06:48:23Z</time>
      </trkpt>
      <trkpt lat="49.62061" lon="4.9822">
        <ele>277.48</ele>
        <time>2018-08-03T06:48:38Z</time>
      </trkpt>
      <trkpt lat="49.62052" lon="4.98214">
        <ele>278.92</ele>
        <time>2018-08-03T06:48:46Z</time>
      </trkpt>
      <trkpt lat="49.62039" lon="4.98204">
        <ele>279.88</ele>
        <time>2018-08-03T06:48:58Z</time>
      </trkpt>
      <trkpt lat="49.62028" lon="4.98197">
        <ele>278.92</ele>
        <time>2018-08-03T06:49:10Z</time>
      </trkpt>
      <trkpt lat="49.6202" lon="4.98192">
        <ele>277.48</ele>
        <time>2018-08-03T06:49:19Z</time>
      </trkpt>
      <trkpt lat="49.62006" lon="4.98187">
        <ele>277.96</ele>
        <time>2018-08-03T06:49:30Z</time>
      </trkpt>
      <trkpt lat="49.61993" lon="4.98181">
        <ele>276.52</ele>
        <time>2018-08-03T06:49:43Z</time>
      </trkpt>
      <trkpt lat="49.61976" lon="4.98176">
        <ele>275.07</ele>
        <time>2018-08-03T06:49:58Z</time>
      </trkpt>
      <trkpt lat="49.6197" lon="4.98173">
        <ele>276.04</ele>
        <time>2018-08-03T06:50:05Z</time>
      </trkpt>
      <trkpt lat="49.61955" lon="4.98172">
        <ele>279.4</ele>
        <time>2018-08-03T06:50:21Z</time>
      </trkpt>
      <trkpt lat="49.61941" lon="4.98165">
        <ele>281.8</ele>
        <time>2018-08-03T06:50:36Z</time>
      </trkpt>
      <trkpt lat="49.61923" lon="4.98157">
        <ele>285.17</ele>
        <time>2018-08-03T06:50:53Z</time>
      </trkpt>
      <trkpt lat="49.61913" lon="4.98152">
        <ele>288.53</ele>
        <time>2018-08-03T06:51:08Z</time>
      </trkpt>
      <trkpt lat="49.61893" lon="4.98151">
        <ele>291.42</ele>
        <time>2018-08-03T06:51:24Z</time>
      </trkpt>
      <trkpt lat="49.61872" lon="4.98154">
        <ele>292.86</ele>
        <time>2018-08-03T06:51:39Z</time>
      </trkpt>
      <trkpt lat="49.61868" lon="4.98155">
        <ele>293.82</ele>
        <time>2018-08-03T06:51:43Z</time>
      </trkpt>
      <trkpt lat="49.61864" lon="4.98154">
        <ele>294.3</ele>
        <time>2018-08-03T06:51:46Z</time>
      </trkpt>
      <trkpt lat="49.61846" lon="4.98166">
        <ele>298.15</ele>
        <time>2018-08-03T06:52:01Z</time>
      </trkpt>
      <trkpt lat="49.61831" lon="4.98172">
        <ele>299.11</ele>
        <time>2018-08-03T06:52:15Z</time>
      </trkpt>
      <trkpt lat="49.61828" lon="4.98173">
        <ele>302.47</ele>
        <time>2018-08-03T06:52:28Z</time>
      </trkpt>
      <trkpt lat="49.61827" lon="4.98173">
        <ele>302.95</ele>
        <time>2018-08-03T06:52:33Z</time>
      </trkpt>
      <trkpt lat="49.61827" lon="4.9817">
        <ele>303.43</ele>
        <time>2018-08-03T06:52:45Z</time>
      </trkpt>
      <trkpt lat="49.61825" lon="4.98171">
        <ele>301.99</ele>
        <time>2018-08-03T06:52:57Z</time>
      </trkpt>
      <trkpt lat="49.61819" lon="4.98187">
        <ele>301.99</ele>
        <time>2018-08-03T06:53:11Z</time>
      </trkpt>
      <trkpt lat="49.61817" lon="4.98188">
        <ele>299.11</ele>
        <time>2018-08-03T06:53:35Z</time>
      </trkpt>
      <trkpt lat="49.61817" lon="4.98197">
        <ele>297.18</ele>
        <time>2018-08-03T06:53:51Z</time>
      </trkpt>
      <trkpt lat="49.61813" lon="4.98205">
        <ele>297.67</ele>
        <time>2018-08-03T06:54:04Z</time>
      </trkpt>
      <trkpt lat="49.6181" lon="4.98216">
        <ele>299.59</ele>
        <time>2018-08-03T06:54:13Z</time>
      </trkpt>
      <trkpt lat="49.61806" lon="4.98223">
        <ele>302.95</ele>
        <time>2018-08-03T06:54:21Z</time>
      </trkpt>
      <trkpt lat="49.61802" lon="4.98235">
        <ele>304.39</ele>
        <time>2018-08-03T06:54:33Z</time>
      </trkpt>
      <trkpt lat="49.618" lon="4.9824">
        <ele>304.88</ele>
        <time>2018-08-03T06:54:39Z</time>
      </trkpt>
      <trkpt lat="49.61797" lon="4.98249">
        <ele>308.24</ele>
        <time>2018-08-03T06:54:48Z</time>
      </trkpt>
      <trkpt lat="49.61795" lon="4.9826">
        <ele>313.05</ele>
        <time>2018-08-03T06:55:01Z</time>
      </trkpt>
      <trkpt lat="49.61795" lon="4.98264">
        <ele>315.93</ele>
        <time>2018-08-03T06:55:13Z</time>
      </trkpt>
      <trkpt lat="49.61795" lon="4.98267">
        <ele>318.33</ele>
        <time>2018-08-03T06:55:24Z</time>
      </trkpt>
      <trkpt lat="49.61792" lon="4.98276">
        <ele>326.99</ele>
        <time>2018-08-03T06:55:37Z</time>
      </trkpt>
      <trkpt lat="49.61791" lon="4.98277">
        <ele>328.43</ele>
        <time>2018-08-03T06:55:38Z</time>
      </trkpt>
      <trkpt lat="49.61784" lon="4.98287">
        <ele>345.73</ele>
        <time>2018-08-03T06:55:51Z</time>
      </trkpt>
      <trkpt lat="49.61782" lon="4.9831">
        <ele>351.98</ele>
        <time>2018-08-03T06:56:04Z</time>
      </trkpt>
      <trkpt lat="49.6178" lon="4.98317">
        <ele>352.94</ele>
        <time>2018-08-03T06:56:06Z</time>
      </trkpt>
      <trkpt lat="49.61769" lon="4.98343">
        <ele>358.71</ele>
        <time>2018-08-03T06:56:18Z</time>
      </trkpt>
      <trkpt lat="49.61761" lon="4.98366">
        <ele>356.31</ele>
        <time>2018-08-03T06:56:29Z</time>
      </trkpt>
      <trkpt lat="49.6176" lon="4.98372">
        <ele>355.83</ele>
        <time>2018-08-03T06:56:31Z</time>
      </trkpt>
      <trkpt lat="49.61758" lon="4.98398">
        <ele>351.02</ele>
        <time>2018-08-03T06:56:43Z</time>
      </trkpt>
      <trkpt lat="49.61757" lon="4.98404">
        <ele>349.1</ele>
        <time>2018-08-03T06:56:45Z</time>
      </trkpt>
      <trkpt lat="49.61756" lon="4.9841">
        <ele>347.65</ele>
        <time>2018-08-03T06:56:47Z</time>
      </trkpt>
      <trkpt lat="49.61754" lon="4.98418">
        <ele>345.25</ele>
        <time>2018-08-03T06:56:50Z</time>
      </trkpt>
      <trkpt lat="49.61751" lon="4.98441">
        <ele>342.37</ele>
        <time>2018-08-03T06:57:03Z</time>
      </trkpt>
      <trkpt lat="49.61747" lon="4.98454">
        <ele>342.37</ele>
        <time>2018-08-03T06:57:14Z</time>
      </trkpt>
      <trkpt lat="49.61744" lon="4.98468">
        <ele>345.25</ele>
        <time>2018-08-03T06:57:25Z</time>
      </trkpt>
      <trkpt lat="49.61741" lon="4.98481">
        <ele>342.37</ele>
        <time>2018-08-03T06:57:38Z</time>
      </trkpt>
      <trkpt lat="49.61739" lon="4.98492">
        <ele>343.81</ele>
        <time>2018-08-03T06:57:48Z</time>
      </trkpt>
      <trkpt lat="49.61735" lon="4.9851">
        <ele>346.69</ele>
        <time>2018-08-03T06:57:59Z</time>
      </trkpt>
      <trkpt lat="49.61731" lon="4.98528">
        <ele>349.1</ele>
        <time>2018-08-03T06:58:13Z</time>
      </trkpt>
      <trkpt lat="49.6173" lon="4.9853">
        <ele>349.1</ele>
        <time>2018-08-03T06:58:14Z</time>
      </trkpt>
      <trkpt lat="49.61727" lon="4.98544">
        <ele>351.02</ele>
        <time>2018-08-03T06:58:24Z</time>
      </trkpt>
      <trkpt lat="49.6172" lon="4.98566">
        <ele>355.83</ele>
        <time>2018-08-03T06:58:37Z</time>
      </trkpt>
      <trkpt lat="49.61717" lon="4.98585">
        <ele>357.27</ele>
        <time>2018-08-03T06:58:50Z</time>
      </trkpt>
      <trkpt lat="49.61712" lon="4.98601">
        <ele>359.67</ele>
        <time>2018-08-03T06:58:58Z</time>
      </trkpt>
      <trkpt lat="49.61708" lon="4.98623">
        <ele>361.11</ele>
        <time>2018-08-03T06:59:09Z</time>
      </trkpt>
      <trkpt lat="49.61697" lon="4.98644">
        <ele>364.96</ele>
        <time>2018-08-03T06:59:20Z</time>
      </trkpt>
      <trkpt lat="49.61692" lon="4.9866">
        <ele>363.04</ele>
        <time>2018-08-03T06:59:32Z</time>
      </trkpt>
      <trkpt lat="49.61686" lon="4.98673">
        <ele>357.75</ele>
        <time>2018-08-03T06:59:44Z</time>
      </trkpt>
      <trkpt lat="49.61683" lon="4.98679">
        <ele>356.79</ele>
        <time>2018-08-03T06:59:48Z</time>
      </trkpt>
      <trkpt lat="49.61681" lon="4.98687">
        <ele>355.34</ele>
        <time>2018-08-03T06:59:51Z</time>
      </trkpt>
      <trkpt lat="49.61672" lon="4.98709">
        <ele>350.54</ele>
        <time>2018-08-03T07:00:04Z</time>
      </trkpt>
      <trkpt lat="49.61665" lon="4.98723">
        <ele>351.02</ele>
        <time>2018-08-03T07:00:13Z</time>
      </trkpt>
      <trkpt lat="49.61655" lon="4.98745">
        <ele>350.54</ele>
        <time>2018-08-03T07:00:25Z</time>
      </trkpt>
      <trkpt lat="49.61649" lon="4.98758">
        <ele>351.02</ele>
        <time>2018-08-03T07:00:36Z</time>
      </trkpt>
      <trkpt lat="49.61646" lon="4.98765">
        <ele>351.5</ele>
        <time>2018-08-03T07:00:40Z</time>
      </trkpt>
      <trkpt lat="49.61638" lon="4.98783">
        <ele>348.62</ele>
        <time>2018-08-03T07:00:53Z</time>
      </trkpt>
      <trkpt lat="49.61632" lon="4.98802">
        <ele>348.62</ele>
        <time>2018-08-03T07:01:05Z</time>
      </trkpt>
      <trkpt lat="49.61627" lon="4.98814">
        <ele>349.1</ele>
        <time>2018-08-03T07:01:15Z</time>
      </trkpt>
      <trkpt lat="49.61622" lon="4.9882">
        <ele>348.62</ele>
        <time>2018-08-03T07:01:27Z</time>
      </trkpt>
      <trkpt lat="49.6162" lon="4.98822">
        <ele>344.29</ele>
        <time>2018-08-03T07:01:36Z</time>
      </trkpt>
      <trkpt lat="49.61615" lon="4.98825">
        <ele>338.04</ele>
        <time>2018-08-03T07:01:46Z</time>
      </trkpt>
      <trkpt lat="49.61609" lon="4.98827">
        <ele>331.79</ele>
        <time>2018-08-03T07:01:59Z</time>
      </trkpt>
      <trkpt lat="49.61596" lon="4.98822">
        <ele>327.95</ele>
        <time>2018-08-03T07:02:11Z</time>
      </trkpt>
      <trkpt lat="49.61585" lon="4.98812">
        <ele>325.54</ele>
        <time>2018-08-03T07:02:22Z</time>
      </trkpt>
      <trkpt lat="49.61574" lon="4.98806">
        <ele>319.78</ele>
        <time>2018-08-03T07:02:35Z</time>
      </trkpt>
      <trkpt lat="49.61567" lon="4.98801">
        <ele>317.37</ele>
        <time>2018-08-03T07:02:47Z</time>
      </trkpt>
      <trkpt lat="49.61556" lon="4.98796">
        <ele>314.97</ele>
        <time>2018-08-03T07:03:00Z</time>
      </trkpt>
      <trkpt lat="49.61539" lon="4.98788">
        <ele>313.53</ele>
        <time>2018-08-03T07:03:14Z</time>
      </trkpt>
      <trkpt lat="49.61516" lon="4.9878">
        <ele>307.28</ele>
        <time>2018-08-03T07:03:29Z</time>
      </trkpt>
      <trkpt lat="49.61503" lon="4.98776">
        <ele>305.84</ele>
        <time>2018-08-03T07:03:38Z</time>
      </trkpt>
      <trkpt lat="49.6149" lon="4.98774">
        <ele>302.95</ele>
        <time>2018-08-03T07:03:51Z</time>
      </trkpt>
      <trkpt lat="49.61478" lon="4.98776">
        <ele>304.88</ele>
        <time>2018-08-03T07:04:05Z</time>
      </trkpt>
      <trkpt lat="49.61469" lon="4.98771">
        <ele>301.99</ele>
        <time>2018-08-03T07:04:16Z</time>
      </trkpt>
      <trkpt lat="49.61458" lon="4.98764">
        <ele>303.43</ele>
        <time>2018-08-03T07:04:31Z</time>
      </trkpt>
      <trkpt lat="49.61454" lon="4.98754">
        <ele>303.43</ele>
        <time>2018-08-03T07:04:39Z</time>
      </trkpt>
      <trkpt lat="49.61444" lon="4.98736">
        <ele>305.36</ele>
        <time>2018-08-03T07:04:55Z</time>
      </trkpt>
      <trkpt lat="49.61436" lon="4.98713">
        <ele>306.8</ele>
        <time>2018-08-03T07:05:08Z</time>
      </trkpt>
      <trkpt lat="49.61432" lon="4.98702">
        <ele>305.84</ele>
        <time>2018-08-03T07:05:19Z</time>
      </trkpt>
      <trkpt lat="49.61424" lon="4.98694">
        <ele>306.8</ele>
        <time>2018-08-03T07:05:33Z</time>
      </trkpt>
      <trkpt lat="49.61416" lon="4.98684">
        <ele>309.2</ele>
        <time>2018-08-03T07:05:43Z</time>
      </trkpt>
      <trkpt lat="49.61409" lon="4.98665">
        <ele>305.84</ele>
        <time>2018-08-03T07:05:54Z</time>
      </trkpt>
      <trkpt lat="49.61394" lon="4.9865">
        <ele>302.47</ele>
        <time>2018-08-03T07:06:02Z</time>
      </trkpt>
      <trkpt lat="49.61387" lon="4.98634">
        <ele>302.47</ele>
        <time>2018-08-03T07:06:09Z</time>
      </trkpt>
      <trkpt lat="49.61377" lon="4.98612">
        <ele>302.95</ele>
        <time>2018-08-03T07:06:24Z</time>
      </trkpt>
      <trkpt lat="49.61369" lon="4.98599">
        <ele>303.43</ele>
        <time>2018-08-03T07:06:35Z</time>
      </trkpt>
      <trkpt lat="49.61364" lon="4.98587">
        <ele>302.95</ele>
        <time>2018-08-03T07:06:49Z</time>
      </trkpt>
      <trkpt lat="49.61356" lon="4.98572">
        <ele>304.88</ele>
        <time>2018-08-03T07:07:02Z</time>
      </trkpt>
      <trkpt lat="49.6135" lon="4.98554">
        <ele>305.36</ele>
        <time>2018-08-03T07:07:14Z</time>
      </trkpt>
      <trkpt lat="49.61332" lon="4.98533">
        <ele>306.32</ele>
        <time>2018-08-03T07:07:29Z</time>
      </trkpt>
      <trkpt lat="49.61321" lon="4.9852">
        <ele>306.32</ele>
        <time>2018-08-03T07:07:40Z</time>
      </trkpt>
      <trkpt lat="49.61312" lon="4.98506">
        <ele>307.28</ele>
        <time>2018-08-03T07:07:53Z</time>
      </trkpt>
      <trkpt lat="49.61302" lon="4.98493">
        <ele>308.72</ele>
        <time>2018-08-03T07:08:01Z</time>
      </trkpt>
      <trkpt lat="49.61302" lon="4.9849">
        <ele>308.24</ele>
        <time>2018-08-03T07:08:03Z</time>
      </trkpt>
      <trkpt lat="49.61297" lon="4.98477">
        <ele>305.84</ele>
        <time>2018-08-03T07:08:15Z</time>
      </trkpt>
      <trkpt lat="49.61288" lon="4.98464">
        <ele>302.95</ele>
        <time>2018-08-03T07:08:29Z</time>
      </trkpt>
      <trkpt lat="49.61282" lon="4.98458">
        <ele>304.39</ele>
        <time>2018-08-03T07:08:33Z</time>
      </trkpt>
      <trkpt lat="49.61272" lon="4.98445">
        <ele>304.88</ele>
        <time>2018-08-03T07:08:45Z</time>
      </trkpt>
      <trkpt lat="49.61259" lon="4.98434">
        <ele>303.91</ele>
        <time>2018-08-03T07:08:51Z</time>
      </trkpt>
      <trkpt lat="49.61248" lon="4.98416">
        <ele>304.39</ele>
        <time>2018-08-03T07:09:02Z</time>
      </trkpt>
      <trkpt lat="49.61243" lon="4.98408">
        <ele>305.36</ele>
        <time>2018-08-03T07:09:17Z</time>
      </trkpt>
      <trkpt lat="49.61242" lon="4.98408">
        <ele>305.36</ele>
        <time>2018-08-03T07:09:18Z</time>
      </trkpt>
      <trkpt lat="49.61232" lon="4.98399">
        <ele>306.32</ele>
        <time>2018-08-03T07:09:25Z</time>
      </trkpt>
      <trkpt lat="49.61225" lon="4.98379">
        <ele>308.72</ele>
        <time>2018-08-03T07:09:36Z</time>
      </trkpt>
      <trkpt lat="49.61199" lon="4.98354">
        <ele>312.57</ele>
        <time>2018-08-03T07:09:52Z</time>
      </trkpt>
      <trkpt lat="49.61185" lon="4.98335">
        <ele>314.49</ele>
        <time>2018-08-03T07:10:05Z</time>
      </trkpt>
      <trkpt lat="49.6118" lon="4.98325">
        <ele>315.93</ele>
        <time>2018-08-03T07:10:15Z</time>
      </trkpt>
      <trkpt lat="49.61175" lon="4.98316">
        <ele>315.93</ele>
        <time>2018-08-03T07:10:28Z</time>
      </trkpt>
      <trkpt lat="49.61173" lon="4.98311">
        <ele>316.41</ele>
        <time>2018-08-03T07:10:40Z</time>
      </trkpt>
      <trkpt lat="49.61166" lon="4.983">
        <ele>315.93</ele>
        <time>2018-08-03T07:10:49Z</time>
      </trkpt>
      <trkpt lat="49.61156" lon="4.9828">
        <ele>316.89</ele>
        <time>2018-08-03T07:11:01Z</time>
      </trkpt>
      <trkpt lat="49.61146" lon="4.98267">
        <ele>316.41</ele>
        <time>2018-08-03T07:11:11Z</time>
      </trkpt>
      <trkpt lat="49.61133" lon="4.98244">
        <ele>314.01</ele>
        <time>2018-08-03T07:11:25Z</time>
      </trkpt>
      <trkpt lat="49.61132" lon="4.98242">
        <ele>314.01</ele>
        <time>2018-08-03T07:11:26Z</time>
      </trkpt>
      <trkpt lat="49.61116" lon="4.98218">
        <ele>310.64</ele>
        <time>2018-08-03T07:11:39Z</time>
      </trkpt>
      <trkpt lat="49.61115" lon="4.98204">
        <ele>311.12</ele>
        <time>2018-08-03T07:11:52Z</time>
      </trkpt>
      <trkpt lat="49.61114" lon="4.98198">
        <ele>312.57</ele>
        <time>2018-08-03T07:12:06Z</time>
      </trkpt>
      <trkpt lat="49.61106" lon="4.98183">
        <ele>313.05</ele>
        <time>2018-08-03T07:12:20Z</time>
      </trkpt>
      <trkpt lat="49.61098" lon="4.98167">
        <ele>312.57</ele>
        <time>2018-08-03T07:12:32Z</time>
      </trkpt>
      <trkpt lat="49.61088" lon="4.98158">
        <ele>310.64</ele>
        <time>2018-08-03T07:12:37Z</time>
      </trkpt>
      <trkpt lat="49.61079" lon="4.98141">
        <ele>312.09</ele>
        <time>2018-08-03T07:12:50Z</time>
      </trkpt>
      <trkpt lat="49.61069" lon="4.98132">
        <ele>312.09</ele>
        <time>2018-08-03T07:12:59Z</time>
      </trkpt>
      <trkpt lat="49.6105" lon="4.98113">
        <ele>313.05</ele>
        <time>2018-08-03T07:13:12Z</time>
      </trkpt>
      <trkpt lat="49.61041" lon="4.98097">
        <ele>316.89</ele>
        <time>2018-08-03T07:13:25Z</time>
      </trkpt>
      <trkpt lat="49.61025" lon="4.98087">
        <ele>313.05</ele>
        <time>2018-08-03T07:13:37Z</time>
      </trkpt>
      <trkpt lat="49.61023" lon="4.98088">
        <ele>312.57</ele>
        <time>2018-08-03T07:13:39Z</time>
      </trkpt>
      <trkpt lat="49.6101" lon="4.98096">
        <ele>314.49</ele>
        <time>2018-08-03T07:13:51Z</time>
      </trkpt>
      <trkpt lat="49.60987" lon="4.98105">
        <ele>314.97</ele>
        <time>2018-08-03T07:14:03Z</time>
      </trkpt>
      <trkpt lat="49.60978" lon="4.9812">
        <ele>318.81</ele>
        <time>2018-08-03T07:14:15Z</time>
      </trkpt>
      <trkpt lat="49.60967" lon="4.98132">
        <ele>324.1</ele>
        <time>2018-08-03T07:14:27Z</time>
      </trkpt>
      <trkpt lat="49.60956" lon="4.98155">
        <ele>326.5</ele>
        <time>2018-08-03T07:14:41Z</time>
      </trkpt>
      <trkpt lat="49.60945" lon="4.98162">
        <ele>327.47</ele>
        <time>2018-08-03T07:14:50Z</time>
      </trkpt>
      <trkpt lat="49.60937" lon="4.98174">
        <ele>327.47</ele>
        <time>2018-08-03T07:15:02Z</time>
      </trkpt>
      <trkpt lat="49.60931" lon="4.98187">
        <ele>327.47</ele>
        <time>2018-08-03T07:15:17Z</time>
      </trkpt>
      <trkpt lat="49.60925" lon="4.98199">
        <ele>327.95</ele>
        <time>2018-08-03T07:15:29Z</time>
      </trkpt>
      <trkpt lat="49.6092" lon="4.98223">
        <ele>327.47</ele>
        <time>2018-08-03T07:15:36Z</time>
      </trkpt>
      <trkpt lat="49.60916" lon="4.9823">
        <ele>327.95</ele>
        <time>2018-08-03T07:15:40Z</time>
      </trkpt>
      <trkpt lat="49.60905" lon="4.98251">
        <ele>328.43</ele>
        <time>2018-08-03T07:15:54Z</time>
      </trkpt>
      <trkpt lat="49.60901" lon="4.98261">
        <ele>328.43</ele>
        <time>2018-08-03T07:15:59Z</time>
      </trkpt>
      <trkpt lat="49.60898" lon="4.98272">
        <ele>328.43</ele>
        <time>2018-08-03T07:16:06Z</time>
      </trkpt>
      <trkpt lat="49.60891" lon="4.98285">
        <ele>329.39</ele>
        <time>2018-08-03T07:16:18Z</time>
      </trkpt>
      <trkpt lat="49.60885" lon="4.98295">
        <ele>330.35</ele>
        <time>2018-08-03T07:16:26Z</time>
      </trkpt>
      <trkpt lat="49.60882" lon="4.98304">
        <ele>330.83</ele>
        <time>2018-08-03T07:16:31Z</time>
      </trkpt>
      <trkpt lat="49.60874" lon="4.98325">
        <ele>331.79</ele>
        <time>2018-08-03T07:16:43Z</time>
      </trkpt>
      <trkpt lat="49.60872" lon="4.98331">
        <ele>331.79</ele>
        <time>2018-08-03T07:16:46Z</time>
      </trkpt>
      <trkpt lat="49.60868" lon="4.98353">
        <ele>331.79</ele>
        <time>2018-08-03T07:16:58Z</time>
      </trkpt>
      <trkpt lat="49.60866" lon="4.98365">
        <ele>331.31</ele>
        <time>2018-08-03T07:17:03Z</time>
      </trkpt>
      <trkpt lat="49.60858" lon="4.9839">
        <ele>329.87</ele>
        <time>2018-08-03T07:17:13Z</time>
      </trkpt>
      <trkpt lat="49.60857" lon="4.98393">
        <ele>330.35</ele>
        <time>2018-08-03T07:17:15Z</time>
      </trkpt>
      <trkpt lat="49.60854" lon="4.984">
        <ele>328.91</ele>
        <time>2018-08-03T07:17:22Z</time>
      </trkpt>
      <trkpt lat="49.60845" lon="4.98413">
        <ele>329.87</ele>
        <time>2018-08-03T07:17:35Z</time>
      </trkpt>
      <trkpt lat="49.60843" lon="4.98417">
        <ele>329.87</ele>
        <time>2018-08-03T07:17:37Z</time>
      </trkpt>
      <trkpt lat="49.60835" lon="4.9843">
        <ele>332.27</ele>
        <time>2018-08-03T07:17:47Z</time>
      </trkpt>
      <trkpt lat="49.60829" lon="4.98438">
        <ele>332.75</ele>
        <time>2018-08-03T07:17:53Z</time>
      </trkpt>
      <trkpt lat="49.6082" lon="4.98459">
        <ele>336.12</ele>
        <time>2018-08-03T07:18:03Z</time>
      </trkpt>
      <trkpt lat="49.60812" lon="4.9847">
        <ele>337.56</ele>
        <time>2018-08-03T07:18:13Z</time>
      </trkpt>
      <trkpt lat="49.60808" lon="4.98475">
        <ele>340.44</ele>
        <time>2018-08-03T07:18:17Z</time>
      </trkpt>
      <trkpt lat="49.60803" lon="4.98484">
        <ele>341.41</ele>
        <time>2018-08-03T07:18:25Z</time>
      </trkpt>
      <trkpt lat="49.60799" lon="4.98492">
        <ele>340.44</ele>
        <time>2018-08-03T07:18:30Z</time>
      </trkpt>
      <trkpt lat="49.60796" lon="4.98502">
        <ele>339.48</ele>
        <time>2018-08-03T07:18:36Z</time>
      </trkpt>
      <trkpt lat="49.60788" lon="4.98524">
        <ele>336.6</ele>
        <time>2018-08-03T07:18:51Z</time>
      </trkpt>
      <trkpt lat="49.60781" lon="4.98546">
        <ele>335.64</ele>
        <time>2018-08-03T07:19:03Z</time>
      </trkpt>
      <trkpt lat="49.60775" lon="4.98563">
        <ele>334.2</ele>
        <time>2018-08-03T07:19:14Z</time>
      </trkpt>
      <trkpt lat="49.60767" lon="4.98592">
        <ele>329.87</ele>
        <time>2018-08-03T07:19:29Z</time>
      </trkpt>
      <trkpt lat="49.60748" lon="4.98617">
        <ele>328.91</ele>
        <time>2018-08-03T07:19:44Z</time>
      </trkpt>
      <trkpt lat="49.60744" lon="4.98624">
        <ele>328.43</ele>
        <time>2018-08-03T07:19:47Z</time>
      </trkpt>
      <trkpt lat="49.60742" lon="4.98628">
        <ele>328.43</ele>
        <time>2018-08-03T07:19:49Z</time>
      </trkpt>
      <trkpt lat="49.60739" lon="4.98632">
        <ele>327.47</ele>
        <time>2018-08-03T07:19:52Z</time>
      </trkpt>
      <trkpt lat="49.60727" lon="4.98654">
        <ele>327.95</ele>
        <time>2018-08-03T07:20:07Z</time>
      </trkpt>
      <trkpt lat="49.6072" lon="4.98672">
        <ele>326.99</ele>
        <time>2018-08-03T07:20:19Z</time>
      </trkpt>
      <trkpt lat="49.60716" lon="4.9868">
        <ele>326.02</ele>
        <time>2018-08-03T07:20:25Z</time>
      </trkpt>
      <trkpt lat="49.6071" lon="4.987">
        <ele>325.54</ele>
        <time>2018-08-03T07:20:39Z</time>
      </trkpt>
      <trkpt lat="49.60706" lon="4.98712">
        <ele>324.58</ele>
        <time>2018-08-03T07:20:48Z</time>
      </trkpt>
      <trkpt lat="49.60699" lon="4.98725">
        <ele>325.54</ele>
        <time>2018-08-03T07:21:01Z</time>
      </trkpt>
      <trkpt lat="49.60696" lon="4.9873">
        <ele>325.54</ele>
        <time>2018-08-03T07:21:04Z</time>
      </trkpt>
      <trkpt lat="49.60689" lon="4.98748">
        <ele>326.99</ele>
        <time>2018-08-03T07:21:17Z</time>
      </trkpt>
      <trkpt lat="49.60687" lon="4.98757">
        <ele>325.54</ele>
        <time>2018-08-03T07:21:20Z</time>
      </trkpt>
      <trkpt lat="49.60679" lon="4.98774">
        <ele>325.54</ele>
        <time>2018-08-03T07:21:32Z</time>
      </trkpt>
      <trkpt lat="49.60675" lon="4.98782">
        <ele>326.02</ele>
        <time>2018-08-03T07:21:45Z</time>
      </trkpt>
      <trkpt lat="49.60668" lon="4.98795">
        <ele>327.47</ele>
        <time>2018-08-03T07:21:57Z</time>
      </trkpt>
      <trkpt lat="49.60658" lon="4.98813">
        <ele>327.47</ele>
        <time>2018-08-03T07:22:12Z</time>
      </trkpt>
      <trkpt lat="49.60651" lon="4.98831">
        <ele>327.95</ele>
        <time>2018-08-03T07:22:22Z</time>
      </trkpt>
      <trkpt lat="49.60638" lon="4.9885">
        <ele>327.95</ele>
        <time>2018-08-03T07:22:33Z</time>
      </trkpt>
      <trkpt lat="49.60636" lon="4.98854">
        <ele>327.47</ele>
        <time>2018-08-03T07:22:35Z</time>
      </trkpt>
      <trkpt lat="49.60626" lon="4.9887">
        <ele>325.54</ele>
        <time>2018-08-03T07:22:47Z</time>
      </trkpt>
      <trkpt lat="49.6062" lon="4.9888">
        <ele>325.54</ele>
        <time>2018-08-03T07:23:03Z</time>
      </trkpt>
      <trkpt lat="49.60618" lon="4.98882">
        <ele>326.02</ele>
        <time>2018-08-03T07:23:06Z</time>
      </trkpt>
      <trkpt lat="49.60607" lon="4.98883">
        <ele>326.02</ele>
        <time>2018-08-03T07:23:17Z</time>
      </trkpt>
      <trkpt lat="49.60594" lon="4.98884">
        <ele>326.99</ele>
        <time>2018-08-03T07:23:30Z</time>
      </trkpt>
      <trkpt lat="49.60576" lon="4.98881">
        <ele>327.95</ele>
        <time>2018-08-03T07:23:44Z</time>
      </trkpt>
      <trkpt lat="49.60565" lon="4.98885">
        <ele>324.1</ele>
        <time>2018-08-03T07:23:58Z</time>
      </trkpt>
      <trkpt lat="49.60543" lon="4.98882">
        <ele>323.14</ele>
        <time>2018-08-03T07:24:12Z</time>
      </trkpt>
      <trkpt lat="49.60528" lon="4.98876">
        <ele>324.1</ele>
        <time>2018-08-03T07:24:24Z</time>
      </trkpt>
      <trkpt lat="49.60515" lon="4.98876">
        <ele>319.78</ele>
        <time>2018-08-03T07:24:37Z</time>
      </trkpt>
      <trkpt lat="49.60506" lon="4.98872">
        <ele>317.85</ele>
        <time>2018-08-03T07:24:47Z</time>
      </trkpt>
      <trkpt lat="49.60503" lon="4.98867">
        <ele>318.33</ele>
        <time>2018-08-03T07:24:58Z</time>
      </trkpt>
      <trkpt lat="49.60487" lon="4.98859">
        <ele>315.93</ele>
        <time>2018-08-03T07:25:12Z</time>
      </trkpt>
      <trkpt lat="49.6047" lon="4.98846">
        <ele>316.41</ele>
        <time>2018-08-03T07:25:27Z</time>
      </trkpt>
      <trkpt lat="49.60453" lon="4.98837">
        <ele>315.45</ele>
        <time>2018-08-03T07:25:40Z</time>
      </trkpt>
      <trkpt lat="49.60439" lon="4.98829">
        <ele>315.45</ele>
        <time>2018-08-03T07:25:49Z</time>
      </trkpt>
      <trkpt lat="49.60423" lon="4.98823">
        <ele>314.49</ele>
        <time>2018-08-03T07:26:03Z</time>
      </trkpt>
      <trkpt lat="49.60411" lon="4.98818">
        <ele>314.49</ele>
        <time>2018-08-03T07:26:17Z</time>
      </trkpt>
      <trkpt lat="49.604" lon="4.98813">
        <ele>314.01</ele>
        <time>2018-08-03T07:26:28Z</time>
      </trkpt>
      <trkpt lat="49.60391" lon="4.98805">
        <ele>315.45</ele>
        <time>2018-08-03T07:26:35Z</time>
      </trkpt>
      <trkpt lat="49.60376" lon="4.98799">
        <ele>317.37</ele>
        <time>2018-08-03T07:26:46Z</time>
      </trkpt>
      <trkpt lat="49.60366" lon="4.98795">
        <ele>317.37</ele>
        <time>2018-08-03T07:27:00Z</time>
      </trkpt>
      <trkpt lat="49.60356" lon="4.98787">
        <ele>316.41</ele>
        <time>2018-08-03T07:27:11Z</time>
      </trkpt>
      <trkpt lat="49.60351" lon="4.98782">
        <ele>316.89</ele>
        <time>2018-08-03T07:27:21Z</time>
      </trkpt>
      <trkpt lat="49.60347" lon="4.98781">
        <ele>317.37</ele>
        <time>2018-08-03T07:27:27Z</time>
      </trkpt>
      <trkpt lat="49.60338" lon="4.98781">
        <ele>318.81</ele>
        <time>2018-08-03T07:27:35Z</time>
      </trkpt>
      <trkpt lat="49.60325" lon="4.98772">
        <ele>318.81</ele>
        <time>2018-08-03T07:27:45Z</time>
      </trkpt>
      <trkpt lat="49.60313" lon="4.98767">
        <ele>315.93</ele>
        <time>2018-08-03T07:27:58Z</time>
      </trkpt>
      <trkpt lat="49.60293" lon="4.98762">
        <ele>313.53</ele>
        <time>2018-08-03T07:28:12Z</time>
      </trkpt>
      <trkpt lat="49.60265" lon="4.98749">
        <ele>309.2</ele>
        <time>2018-08-03T07:28:26Z</time>
      </trkpt>
      <trkpt lat="49.60242" lon="4.98748">
        <ele>304.88</ele>
        <time>2018-08-03T07:28:38Z</time>
      </trkpt>
      <trkpt lat="49.60227" lon="4.98748">
        <ele>304.39</ele>
        <time>2018-08-03T07:28:53Z</time>
      </trkpt>
      <trkpt lat="49.60212" lon="4.98748">
        <ele>301.03</ele>
        <time>2018-08-03T07:29:08Z</time>
      </trkpt>
      <trkpt lat="49.60202" lon="4.98745">
        <ele>299.11</ele>
        <time>2018-08-03T07:29:16Z</time>
      </trkpt>
      <trkpt lat="49.60195" lon="4.98743">
        <ele>297.18</ele>
        <time>2018-08-03T07:29:22Z</time>
      </trkpt>
      <trkpt lat="49.60187" lon="4.98735">
        <ele>297.67</ele>
        <time>2018-08-03T07:29:34Z</time>
      </trkpt>
      <trkpt lat="49.60177" lon="4.98719">
        <ele>297.67</ele>
        <time>2018-08-03T07:29:46Z</time>
      </trkpt>
      <trkpt lat="49.60168" lon="4.98707">
        <ele>298.63</ele>
        <time>2018-08-03T07:30:00Z</time>
      </trkpt>
      <trkpt lat="49.60161" lon="4.98698">
        <ele>300.55</ele>
        <time>2018-08-03T07:30:09Z</time>
      </trkpt>
      <trkpt lat="49.60154" lon="4.98686">
        <ele>301.51</ele>
        <time>2018-08-03T07:30:22Z</time>
      </trkpt>
      <trkpt lat="49.60148" lon="4.98678">
        <ele>304.88</ele>
        <time>2018-08-03T07:30:30Z</time>
      </trkpt>
      <trkpt lat="49.60145" lon="4.98668">
        <ele>306.32</ele>
        <time>2018-08-03T07:30:35Z</time>
      </trkpt>
      <trkpt lat="49.60142" lon="4.98661">
        <ele>308.24</ele>
        <time>2018-08-03T07:30:40Z</time>
      </trkpt>
      <trkpt lat="49.60138" lon="4.98656">
        <ele>309.2</ele>
        <time>2018-08-03T07:30:44Z</time>
      </trkpt>
      <trkpt lat="49.60127" lon="4.9864">
        <ele>310.64</ele>
        <time>2018-08-03T07:30:57Z</time>
      </trkpt>
      <trkpt lat="49.60118" lon="4.98628">
        <ele>311.12</ele>
        <time>2018-08-03T07:31:08Z</time>
      </trkpt>
      <trkpt lat="49.60106" lon="4.9861">
        <ele>312.09</ele>
        <time>2018-08-03T07:31:21Z</time>
      </trkpt>
      <trkpt lat="49.60096" lon="4.98602">
        <ele>312.09</ele>
        <time>2018-08-03T07:31:33Z</time>
      </trkpt>
      <trkpt lat="49.60092" lon="4.98601">
        <ele>312.57</ele>
        <time>2018-08-03T07:31:38Z</time>
      </trkpt>
      <trkpt lat="49.60083" lon="4.98607">
        <ele>312.09</ele>
        <time>2018-08-03T07:31:49Z</time>
      </trkpt>
      <trkpt lat="49.60075" lon="4.98622">
        <ele>317.37</ele>
        <time>2018-08-03T07:32:03Z</time>
      </trkpt>
      <trkpt lat="49.60066" lon="4.98636">
        <ele>326.5</ele>
        <time>2018-08-03T07:32:16Z</time>
      </trkpt>
      <trkpt lat="49.60061" lon="4.98639">
        <ele>324.1</ele>
        <time>2018-08-03T07:32:32Z</time>
      </trkpt>
      <trkpt lat="49.60052" lon="4.98655">
        <ele>324.1</ele>
        <time>2018-08-03T07:32:51Z</time>
      </trkpt>
      <trkpt lat="49.60048" lon="4.98664">
        <ele>326.02</ele>
        <time>2018-08-03T07:33:00Z</time>
      </trkpt>
      <trkpt lat="49.60047" lon="4.98668">
        <ele>326.99</ele>
        <time>2018-08-03T07:33:08Z</time>
      </trkpt>
      <trkpt lat="49.60041" lon="4.98686">
        <ele>328.43</ele>
        <time>2018-08-03T07:33:22Z</time>
      </trkpt>
      <trkpt lat="49.60036" lon="4.987">
        <ele>331.79</ele>
        <time>2018-08-03T07:33:33Z</time>
      </trkpt>
      <trkpt lat="49.60028" lon="4.98725">
        <ele>334.2</ele>
        <time>2018-08-03T07:33:47Z</time>
      </trkpt>
      <trkpt lat="49.60018" lon="4.98737">
        <ele>335.16</ele>
        <time>2018-08-03T07:34:00Z</time>
      </trkpt>
      <trkpt lat="49.60011" lon="4.98744">
        <ele>337.56</ele>
        <time>2018-08-03T07:34:11Z</time>
      </trkpt>
      <trkpt lat="49.60006" lon="4.98752">
        <ele>338.52</ele>
        <time>2018-08-03T07:34:17Z</time>
      </trkpt>
      <trkpt lat="49.59998" lon="4.98758">
        <ele>340.92</ele>
        <time>2018-08-03T07:34:29Z</time>
      </trkpt>
      <trkpt lat="49.59997" lon="4.98762">
        <ele>341.41</ele>
        <time>2018-08-03T07:34:32Z</time>
      </trkpt>
      <trkpt lat="49.59985" lon="4.98796">
        <ele>339</ele>
        <time>2018-08-03T07:34:46Z</time>
      </trkpt>
      <trkpt lat="49.5998" lon="4.98807">
        <ele>338.52</ele>
        <time>2018-08-03T07:34:59Z</time>
      </trkpt>
      <trkpt lat="49.59975" lon="4.98817">
        <ele>340.44</ele>
        <time>2018-08-03T07:35:10Z</time>
      </trkpt>
      <trkpt lat="49.59963" lon="4.98832">
        <ele>341.89</ele>
        <time>2018-08-03T07:35:22Z</time>
      </trkpt>
      <trkpt lat="49.59962" lon="4.98835">
        <ele>341.41</ele>
        <time>2018-08-03T07:35:29Z</time>
      </trkpt>
      <trkpt lat="49.59958" lon="4.98839">
        <ele>340.44</ele>
        <time>2018-08-03T07:35:31Z</time>
      </trkpt>
      <trkpt lat="49.59948" lon="4.98868">
        <ele>335.64</ele>
        <time>2018-08-03T07:35:45Z</time>
      </trkpt>
      <trkpt lat="49.5994" lon="4.98889">
        <ele>334.68</ele>
        <time>2018-08-03T07:35:58Z</time>
      </trkpt>
      <trkpt lat="49.59937" lon="4.98896">
        <ele>332.27</ele>
        <time>2018-08-03T07:36:01Z</time>
      </trkpt>
      <trkpt lat="49.59925" lon="4.98915">
        <ele>331.79</ele>
        <time>2018-08-03T07:36:16Z</time>
      </trkpt>
      <trkpt lat="49.59912" lon="4.98932">
        <ele>332.75</ele>
        <time>2018-08-03T07:36:30Z</time>
      </trkpt>
      <trkpt lat="49.59904" lon="4.98944">
        <ele>336.12</ele>
        <time>2018-08-03T07:36:40Z</time>
      </trkpt>
      <trkpt lat="49.59896" lon="4.98962">
        <ele>340.92</ele>
        <time>2018-08-03T07:36:55Z</time>
      </trkpt>
      <trkpt lat="49.59888" lon="4.98972">
        <ele>343.81</ele>
        <time>2018-08-03T07:37:08Z</time>
      </trkpt>
      <trkpt lat="49.59877" lon="4.98982">
        <ele>342.85</ele>
        <time>2018-08-03T07:37:21Z</time>
      </trkpt>
      <trkpt lat="49.59876" lon="4.98983">
        <ele>342.85</ele>
        <time>2018-08-03T07:37:22Z</time>
      </trkpt>
      <trkpt lat="49.59865" lon="4.98995">
        <ele>341.41</ele>
        <time>2018-08-03T07:37:36Z</time>
      </trkpt>
      <trkpt lat="49.59849" lon="4.99007">
        <ele>339.96</ele>
        <time>2018-08-03T07:37:50Z</time>
      </trkpt>
      <trkpt lat="49.59832" lon="4.99018">
        <ele>339</ele>
        <time>2018-08-03T07:38:04Z</time>
      </trkpt>
      <trkpt lat="49.5983" lon="4.99019">
        <ele>339</ele>
        <time>2018-08-03T07:38:07Z</time>
      </trkpt>
      <trkpt lat="49.59813" lon="4.99032">
        <ele>334.2</ele>
        <time>2018-08-03T07:38:21Z</time>
      </trkpt>
      <trkpt lat="49.59801" lon="4.99039">
        <ele>331.79</ele>
        <time>2018-08-03T07:38:32Z</time>
      </trkpt>
      <trkpt lat="49.59799" lon="4.99041">
        <ele>331.31</ele>
        <time>2018-08-03T07:38:35Z</time>
      </trkpt>
      <trkpt lat="49.59783" lon="4.99055">
        <ele>326.99</ele>
        <time>2018-08-03T07:38:48Z</time>
      </trkpt>
      <trkpt lat="49.59779" lon="4.99062">
        <ele>325.06</ele>
        <time>2018-08-03T07:38:58Z</time>
      </trkpt>
      <trkpt lat="49.59781" lon="4.99063">
        <ele>325.06</ele>
        <time>2018-08-03T07:39:12Z</time>
      </trkpt>
      <trkpt lat="49.59777" lon="4.99069">
        <ele>325.54</ele>
        <time>2018-08-03T07:39:29Z</time>
      </trkpt>
      <trkpt lat="49.59773" lon="4.99073">
        <ele>325.06</ele>
        <time>2018-08-03T07:39:36Z</time>
      </trkpt>
      <trkpt lat="49.59758" lon="4.99077">
        <ele>326.5</ele>
        <time>2018-08-03T07:39:52Z</time>
      </trkpt>
      <trkpt lat="49.59739" lon="4.9909">
        <ele>329.87</ele>
        <time>2018-08-03T07:40:06Z</time>
      </trkpt>
      <trkpt lat="49.59722" lon="4.99102">
        <ele>331.31</ele>
        <time>2018-08-03T07:40:18Z</time>
      </trkpt>
      <trkpt lat="49.59713" lon="4.99108">
        <ele>330.35</ele>
        <time>2018-08-03T07:40:27Z</time>
      </trkpt>
      <trkpt lat="49.59698" lon="4.99117">
        <ele>329.87</ele>
        <time>2018-08-03T07:40:39Z</time>
      </trkpt>
      <trkpt lat="49.59689" lon="4.99127">
        <ele>329.39</ele>
        <time>2018-08-03T07:40:48Z</time>
      </trkpt>
      <trkpt lat="49.59686" lon="4.99127">
        <ele>329.87</ele>
        <time>2018-08-03T07:40:50Z</time>
      </trkpt>
      <trkpt lat="49.59675" lon="4.99133">
        <ele>332.27</ele>
        <time>2018-08-03T07:40:58Z</time>
      </trkpt>
      <trkpt lat="49.59665" lon="4.99141">
        <ele>333.23</ele>
        <time>2018-08-03T07:41:12Z</time>
      </trkpt>
      <trkpt lat="49.59656" lon="4.99146">
        <ele>333.71</ele>
        <time>2018-08-03T07:41:24Z</time>
      </trkpt>
      <trkpt lat="49.59644" lon="4.99146">
        <ele>332.75</ele>
        <time>2018-08-03T07:41:32Z</time>
      </trkpt>
      <trkpt lat="49.59617" lon="4.99156">
        <ele>330.35</ele>
        <time>2018-08-03T07:41:45Z</time>
      </trkpt>
      <trkpt lat="49.59602" lon="4.99171">
        <ele>329.39</ele>
        <time>2018-08-03T07:41:58Z</time>
      </trkpt>
      <trkpt lat="49.59599" lon="4.99174">
        <ele>327.95</ele>
        <time>2018-08-03T07:42:13Z</time>
      </trkpt>
      <trkpt lat="49.59594" lon="4.99179">
        <ele>326.5</ele>
        <time>2018-08-03T07:42:31Z</time>
      </trkpt>
      <trkpt lat="49.5959" lon="4.99186">
        <ele>325.06</ele>
        <time>2018-08-03T07:42:42Z</time>
      </trkpt>
      <trkpt lat="49.59584" lon="4.99194">
        <ele>323.62</ele>
        <time>2018-08-03T07:42:53Z</time>
      </trkpt>
      <trkpt lat="49.59563" lon="4.99218">
        <ele>322.18</ele>
        <time>2018-08-03T07:43:09Z</time>
      </trkpt>
      <trkpt lat="49.5955" lon="4.99238">
        <ele>317.85</ele>
        <time>2018-08-03T07:43:24Z</time>
      </trkpt>
      <trkpt lat="49.59543" lon="4.99248">
        <ele>314.01</ele>
        <time>2018-08-03T07:43:35Z</time>
      </trkpt>
      <trkpt lat="49.59543" lon="4.99249">
        <ele>314.01</ele>
        <time>2018-08-03T07:43:46Z</time>
      </trkpt>
      <trkpt lat="49.59538" lon="4.99254">
        <ele>313.53</ele>
        <time>2018-08-03T07:43:52Z</time>
      </trkpt>
      <trkpt lat="49.59527" lon="4.99265">
        <ele>314.01</ele>
        <time>2018-08-03T07:44:04Z</time>
      </trkpt>
      <trkpt lat="49.59511" lon="4.99283">
        <ele>312.57</ele>
        <time>2018-08-03T07:44:18Z</time>
      </trkpt>
      <trkpt lat="49.59509" lon="4.99287">
        <ele>312.57</ele>
        <time>2018-08-03T07:44:23Z</time>
      </trkpt>
      <trkpt lat="49.59497" lon="4.99305">
        <ele>313.05</ele>
        <time>2018-08-03T07:44:38Z</time>
      </trkpt>
      <trkpt lat="49.59499" lon="4.99312">
        <ele>310.16</ele>
        <time>2018-08-03T07:44:53Z</time>
      </trkpt>
      <trkpt lat="49.59499" lon="4.99313">
        <ele>309.2</ele>
        <time>2018-08-03T07:45:19Z</time>
      </trkpt>
      <trkpt lat="49.59501" lon="4.99311">
        <ele>308.24</ele>
        <time>2018-08-03T07:45:40Z</time>
      </trkpt>
      <trkpt lat="49.59501" lon="4.9931">
        <ele>307.76</ele>
        <time>2018-08-03T07:45:56Z</time>
      </trkpt>
      <trkpt lat="49.59502" lon="4.9931">
        <ele>308.24</ele>
        <time>2018-08-03T07:46:14Z</time>
      </trkpt>
      <trkpt lat="49.59502" lon="4.99309">
        <ele>307.76</ele>
        <time>2018-08-03T07:46:35Z</time>
      </trkpt>
      <trkpt lat="49.59502" lon="4.99309">
        <ele>307.28</ele>
        <time>2018-08-03T07:46:55Z</time>
      </trkpt>
      <trkpt lat="49.59502" lon="4.9931">
        <ele>307.28</ele>
        <time>2018-08-03T07:47:12Z</time>
      </trkpt>
      <trkpt lat="49.59502" lon="4.99309">
        <ele>307.28</ele>
        <time>2018-08-03T07:47:34Z</time>
      </trkpt>
      <trkpt lat="49.59502" lon="4.9931">
        <ele>306.8</ele>
        <time>2018-08-03T07:47:53Z</time>
      </trkpt>
      <trkpt lat="49.59501" lon="4.9931">
        <ele>306.32</ele>
        <time>2018-08-03T07:48:22Z</time>
      </trkpt>
      <trkpt lat="49.595" lon="4.99309">
        <ele>306.32</ele>
        <time>2018-08-03T07:48:31Z</time>
      </trkpt>
      <trkpt lat="49.59495" lon="4.99312">
        <ele>306.32</ele>
        <time>2018-08-03T07:48:46Z</time>
      </trkpt>
      <trkpt lat="49.59496" lon="4.99312">
        <ele>305.84</ele>
        <time>2018-08-03T07:48:52Z</time>
      </trkpt>
      <trkpt lat="49.59492" lon="4.99317">
        <ele>305.84</ele>
        <time>2018-08-03T07:49:04Z</time>
      </trkpt>
      <trkpt lat="49.59484" lon="4.99329">
        <ele>304.88</ele>
        <time>2018-08-03T07:49:17Z</time>
      </trkpt>
      <trkpt lat="49.59471" lon="4.99348">
        <ele>303.91</ele>
        <time>2018-08-03T07:49:31Z</time>
      </trkpt>
      <trkpt lat="49.59454" lon="4.99368">
        <ele>301.51</ele>
        <time>2018-08-03T07:49:49Z</time>
      </trkpt>
      <trkpt lat="49.59443" lon="4.99384">
        <ele>301.03</ele>
        <time>2018-08-03T07:50:03Z</time>
      </trkpt>
      <trkpt lat="49.59433" lon="4.99396">
        <ele>300.55</ele>
        <time>2018-08-03T07:50:13Z</time>
      </trkpt>
      <trkpt lat="49.59426" lon="4.99411">
        <ele>299.59</ele>
        <time>2018-08-03T07:50:29Z</time>
      </trkpt>
      <trkpt lat="49.59415" lon="4.99422">
        <ele>299.11</ele>
        <time>2018-08-03T07:50:43Z</time>
      </trkpt>
      <trkpt lat="49.59399" lon="4.99436">
        <ele>299.11</ele>
        <time>2018-08-03T07:50:58Z</time>
      </trkpt>
      <trkpt lat="49.59386" lon="4.99447">
        <ele>298.63</ele>
        <time>2018-08-03T07:51:14Z</time>
      </trkpt>
      <trkpt lat="49.59372" lon="4.99466">
        <ele>298.63</ele>
        <time>2018-08-03T07:51:32Z</time>
      </trkpt>
      <trkpt lat="49.59371" lon="4.99467">
        <ele>298.63</ele>
        <time>2018-08-03T07:51:33Z</time>
      </trkpt>
      <trkpt lat="49.59358" lon="4.99484">
        <ele>297.18</ele>
        <time>2018-08-03T07:51:48Z</time>
      </trkpt>
      <trkpt lat="49.59342" lon="4.99498">
        <ele>296.7</ele>
        <time>2018-08-03T07:52:03Z</time>
      </trkpt>
      <trkpt lat="49.59331" lon="4.9951">
        <ele>295.74</ele>
        <time>2018-08-03T07:52:17Z</time>
      </trkpt>
      <trkpt lat="49.5932" lon="4.99523">
        <ele>297.67</ele>
        <time>2018-08-03T07:52:31Z</time>
      </trkpt>
      <trkpt lat="49.59305" lon="4.99531">
        <ele>299.11</ele>
        <time>2018-08-03T07:52:47Z</time>
      </trkpt>
      <trkpt lat="49.59299" lon="4.99526">
        <ele>301.99</ele>
        <time>2018-08-03T07:53:06Z</time>
      </trkpt>
      <trkpt lat="49.59299" lon="4.99523">
        <ele>301.99</ele>
        <time>2018-08-03T07:53:22Z</time>
      </trkpt>
      <trkpt lat="49.59298" lon="4.99514">
        <ele>301.51</ele>
        <time>2018-08-03T07:53:36Z</time>
      </trkpt>
      <trkpt lat="49.59298" lon="4.99502">
        <ele>302.95</ele>
        <time>2018-08-03T07:53:51Z</time>
      </trkpt>
      <trkpt lat="49.59297" lon="4.9949">
        <ele>305.84</ele>
        <time>2018-08-03T07:54:04Z</time>
      </trkpt>
      <trkpt lat="49.59299" lon="4.99481">
        <ele>308.72</ele>
        <time>2018-08-03T07:54:11Z</time>
      </trkpt>
      <trkpt lat="49.593" lon="4.9945">
        <ele>313.05</ele>
        <time>2018-08-03T07:54:28Z</time>
      </trkpt>
      <trkpt lat="49.59298" lon="4.99443">
        <ele>310.64</ele>
        <time>2018-08-03T07:54:49Z</time>
      </trkpt>
      <trkpt lat="49.59297" lon="4.99435">
        <ele>309.68</ele>
        <time>2018-08-03T07:55:05Z</time>
      </trkpt>
      <trkpt lat="49.59296" lon="4.99409">
        <ele>311.12</ele>
        <time>2018-08-03T07:55:19Z</time>
      </trkpt>
      <trkpt lat="49.59292" lon="4.99387">
        <ele>311.6</ele>
        <time>2018-08-03T07:55:34Z</time>
      </trkpt>
      <trkpt lat="49.59292" lon="4.99385">
        <ele>312.09</ele>
        <time>2018-08-03T07:55:35Z</time>
      </trkpt>
      <trkpt lat="49.59288" lon="4.99354">
        <ele>310.16</ele>
        <time>2018-08-03T07:55:49Z</time>
      </trkpt>
      <trkpt lat="49.59287" lon="4.99334">
        <ele>309.2</ele>
        <time>2018-08-03T07:55:59Z</time>
      </trkpt>
      <trkpt lat="49.59288" lon="4.99309">
        <ele>305.84</ele>
        <time>2018-08-03T07:56:15Z</time>
      </trkpt>
      <trkpt lat="49.59281" lon="4.99281">
        <ele>301.51</ele>
        <time>2018-08-03T07:56:30Z</time>
      </trkpt>
      <trkpt lat="49.59276" lon="4.99258">
        <ele>298.15</ele>
        <time>2018-08-03T07:56:45Z</time>
      </trkpt>
      <trkpt lat="49.59273" lon="4.99228">
        <ele>296.7</ele>
        <time>2018-08-03T07:57:02Z</time>
      </trkpt>
      <trkpt lat="49.59272" lon="4.99215">
        <ele>296.7</ele>
        <time>2018-08-03T07:57:11Z</time>
      </trkpt>
      <trkpt lat="49.5927" lon="4.99205">
        <ele>296.7</ele>
        <time>2018-08-03T07:57:15Z</time>
      </trkpt>
      <trkpt lat="49.59269" lon="4.99182">
        <ele>295.26</ele>
        <time>2018-08-03T07:57:28Z</time>
      </trkpt>
      <trkpt lat="49.5926" lon="4.99161">
        <ele>292.86</ele>
        <time>2018-08-03T07:57:45Z</time>
      </trkpt>
      <trkpt lat="49.59259" lon="4.99147">
        <ele>292.86</ele>
        <time>2018-08-03T07:57:51Z</time>
      </trkpt>
      <trkpt lat="49.59255" lon="4.99121">
        <ele>292.86</ele>
        <time>2018-08-03T07:58:06Z</time>
      </trkpt>
      <trkpt lat="49.59252" lon="4.99089">
        <ele>288.53</ele>
        <time>2018-08-03T07:58:22Z</time>
      </trkpt>
      <trkpt lat="49.59252" lon="4.99083">
        <ele>287.57</ele>
        <time>2018-08-03T07:58:25Z</time>
      </trkpt>
      <trkpt lat="49.59248" lon="4.99053">
        <ele>289.97</ele>
        <time>2018-08-03T07:58:40Z</time>
      </trkpt>
      <trkpt lat="49.59248" lon="4.99032">
        <ele>291.42</ele>
        <time>2018-08-03T07:58:57Z</time>
      </trkpt>
      <trkpt lat="49.59248" lon="4.99">
        <ele>289.01</ele>
        <time>2018-08-03T07:59:12Z</time>
      </trkpt>
      <trkpt lat="49.59247" lon="4.98992">
        <ele>288.05</ele>
        <time>2018-08-03T07:59:17Z</time>
      </trkpt>
      <trkpt lat="49.59247" lon="4.98973">
        <ele>287.09</ele>
        <time>2018-08-03T07:59:26Z</time>
      </trkpt>
      <trkpt lat="49.59244" lon="4.98948">
        <ele>286.13</ele>
        <time>2018-08-03T07:59:41Z</time>
      </trkpt>
      <trkpt lat="49.59244" lon="4.98918">
        <ele>284.69</ele>
        <time>2018-08-03T07:59:56Z</time>
      </trkpt>
      <trkpt lat="49.59245" lon="4.98896">
        <ele>283.73</ele>
        <time>2018-08-03T08:00:12Z</time>
      </trkpt>
      <trkpt lat="49.59246" lon="4.9889">
        <ele>283.25</ele>
        <time>2018-08-03T08:00:15Z</time>
      </trkpt>
      <trkpt lat="49.59245" lon="4.98862">
        <ele>283.25</ele>
        <time>2018-08-03T08:00:31Z</time>
      </trkpt>
      <trkpt lat="49.59244" lon="4.98858">
        <ele>283.25</ele>
        <time>2018-08-03T08:00:33Z</time>
      </trkpt>
      <trkpt lat="49.59239" lon="4.98826">
        <ele>280.84</ele>
        <time>2018-08-03T08:00:48Z</time>
      </trkpt>
      <trkpt lat="49.59235" lon="4.98804">
        <ele>279.4</ele>
        <time>2018-08-03T08:01:04Z</time>
      </trkpt>
      <trkpt lat="49.59235" lon="4.98803">
        <ele>279.88</ele>
        <time>2018-08-03T08:01:07Z</time>
      </trkpt>
      <trkpt lat="49.59233" lon="4.9879">
        <ele>280.36</ele>
        <time>2018-08-03T08:01:19Z</time>
      </trkpt>
      <trkpt lat="49.59229" lon="4.98769">
        <ele>280.84</ele>
        <time>2018-08-03T08:01:32Z</time>
      </trkpt>
      <trkpt lat="49.59227" lon="4.98757">
        <ele>281.8</ele>
        <time>2018-08-03T08:01:43Z</time>
      </trkpt>
      <trkpt lat="49.59226" lon="4.98731">
        <ele>283.73</ele>
        <time>2018-08-03T08:01:57Z</time>
      </trkpt>
      <trkpt lat="49.59227" lon="4.987">
        <ele>281.8</ele>
        <time>2018-08-03T08:02:13Z</time>
      </trkpt>
      <trkpt lat="49.59227" lon="4.98693">
        <ele>281.8</ele>
        <time>2018-08-03T08:02:18Z</time>
      </trkpt>
      <trkpt lat="49.59227" lon="4.98674">
        <ele>283.25</ele>
        <time>2018-08-03T08:02:31Z</time>
      </trkpt>
      <trkpt lat="49.59228" lon="4.98649">
        <ele>284.69</ele>
        <time>2018-08-03T08:02:44Z</time>
      </trkpt>
      <trkpt lat="49.59227" lon="4.98615">
        <ele>285.17</ele>
        <time>2018-08-03T08:03:01Z</time>
      </trkpt>
      <trkpt lat="49.59228" lon="4.98585">
        <ele>284.69</ele>
        <time>2018-08-03T08:03:18Z</time>
      </trkpt>
      <trkpt lat="49.59228" lon="4.98554">
        <ele>285.65</ele>
        <time>2018-08-03T08:03:33Z</time>
      </trkpt>
      <trkpt lat="49.59226" lon="4.98527">
        <ele>287.09</ele>
        <time>2018-08-03T08:03:48Z</time>
      </trkpt>
      <trkpt lat="49.59227" lon="4.98494">
        <ele>287.09</ele>
        <time>2018-08-03T08:04:04Z</time>
      </trkpt>
      <trkpt lat="49.59231" lon="4.98475">
        <ele>285.17</ele>
        <time>2018-08-03T08:04:17Z</time>
      </trkpt>
      <trkpt lat="49.59233" lon="4.98466">
        <ele>284.69</ele>
        <time>2018-08-03T08:04:30Z</time>
      </trkpt>
      <trkpt lat="49.59233" lon="4.98456">
        <ele>282.77</ele>
        <time>2018-08-03T08:04:49Z</time>
      </trkpt>
      <trkpt lat="49.59234" lon="4.98436">
        <ele>281.32</ele>
        <time>2018-08-03T08:05:01Z</time>
      </trkpt>
      <trkpt lat="49.59237" lon="4.98408">
        <ele>281.32</ele>
        <time>2018-08-03T08:05:15Z</time>
      </trkpt>
      <trkpt lat="49.59238" lon="4.98378">
        <ele>281.32</ele>
        <time>2018-08-03T08:05:31Z</time>
      </trkpt>
      <trkpt lat="49.59239" lon="4.98366">
        <ele>281.32</ele>
        <time>2018-08-03T08:05:46Z</time>
      </trkpt>
      <trkpt lat="49.5924" lon="4.98344">
        <ele>281.8</ele>
        <time>2018-08-03T08:05:57Z</time>
      </trkpt>
      <trkpt lat="49.5924" lon="4.98319">
        <ele>282.28</ele>
        <time>2018-08-03T08:06:12Z</time>
      </trkpt>
      <trkpt lat="49.5924" lon="4.98301">
        <ele>282.77</ele>
        <time>2018-08-03T08:06:27Z</time>
      </trkpt>
      <trkpt lat="49.59241" lon="4.98279">
        <ele>283.25</ele>
        <time>2018-08-03T08:06:42Z</time>
      </trkpt>
      <trkpt lat="49.59241" lon="4.98261">
        <ele>283.25</ele>
        <time>2018-08-03T08:06:56Z</time>
      </trkpt>
      <trkpt lat="49.59241" lon="4.98243">
        <ele>282.28</ele>
        <time>2018-08-03T08:07:14Z</time>
      </trkpt>
      <trkpt lat="49.59241" lon="4.98211">
        <ele>282.28</ele>
        <time>2018-08-03T08:07:31Z</time>
      </trkpt>
      <trkpt lat="49.59241" lon="4.98198">
        <ele>282.28</ele>
        <time>2018-08-03T08:07:42Z</time>
      </trkpt>
      <trkpt lat="49.5924" lon="4.98173">
        <ele>282.77</ele>
        <time>2018-08-03T08:07:56Z</time>
      </trkpt>
      <trkpt lat="49.59239" lon="4.98147">
        <ele>283.25</ele>
        <time>2018-08-03T08:08:10Z</time>
      </trkpt>
      <trkpt lat="49.59238" lon="4.98117">
        <ele>284.69</ele>
        <time>2018-08-03T08:08:26Z</time>
      </trkpt>
      <trkpt lat="49.59237" lon="4.98094">
        <ele>286.61</ele>
        <time>2018-08-03T08:08:39Z</time>
      </trkpt>
      <trkpt lat="49.59235" lon="4.98067">
        <ele>288.05</ele>
        <time>2018-08-03T08:08:55Z</time>
      </trkpt>
      <trkpt lat="49.59232" lon="4.98037">
        <ele>287.57</ele>
        <time>2018-08-03T08:09:11Z</time>
      </trkpt>
      <trkpt lat="49.59229" lon="4.98006">
        <ele>289.01</ele>
        <time>2018-08-03T08:09:27Z</time>
      </trkpt>
      <trkpt lat="49.59227" lon="4.97985">
        <ele>288.53</ele>
        <time>2018-08-03T08:09:43Z</time>
      </trkpt>
      <trkpt lat="49.59224" lon="4.97957">
        <ele>289.97</ele>
        <time>2018-08-03T08:09:57Z</time>
      </trkpt>
      <trkpt lat="49.59222" lon="4.97932">
        <ele>290.94</ele>
        <time>2018-08-03T08:10:10Z</time>
      </trkpt>
      <trkpt lat="49.5922" lon="4.97909">
        <ele>292.86</ele>
        <time>2018-08-03T08:10:23Z</time>
      </trkpt>
      <trkpt lat="49.59217" lon="4.97885">
        <ele>294.3</ele>
        <time>2018-08-03T08:10:36Z</time>
      </trkpt>
      <trkpt lat="49.59215" lon="4.9786">
        <ele>295.26</ele>
        <time>2018-08-03T08:10:49Z</time>
      </trkpt>
      <trkpt lat="49.59212" lon="4.97838">
        <ele>296.7</ele>
        <time>2018-08-03T08:11:01Z</time>
      </trkpt>
      <trkpt lat="49.59208" lon="4.97814">
        <ele>299.11</ele>
        <time>2018-08-03T08:11:15Z</time>
      </trkpt>
      <trkpt lat="49.59207" lon="4.97804">
        <ele>300.07</ele>
        <time>2018-08-03T08:11:27Z</time>
      </trkpt>
      <trkpt lat="49.59202" lon="4.9778">
        <ele>301.03</ele>
        <time>2018-08-03T08:11:41Z</time>
      </trkpt>
      <trkpt lat="49.59198" lon="4.97762">
        <ele>301.51</ele>
        <time>2018-08-03T08:11:52Z</time>
      </trkpt>
      <trkpt lat="49.59195" lon="4.97746">
        <ele>302.95</ele>
        <time>2018-08-03T08:12:05Z</time>
      </trkpt>
      <trkpt lat="49.59193" lon="4.97733">
        <ele>302.47</ele>
        <time>2018-08-03T08:12:15Z</time>
      </trkpt>
      <trkpt lat="49.592" lon="4.97717">
        <ele>303.43</ele>
        <time>2018-08-03T08:12:30Z</time>
      </trkpt>
      <trkpt lat="49.592" lon="4.97716">
        <ele>303.43</ele>
        <time>2018-08-03T08:12:31Z</time>
      </trkpt>
      <trkpt lat="49.59215" lon="4.977">
        <ele>305.84</ele>
        <time>2018-08-03T08:12:48Z</time>
      </trkpt>
      <trkpt lat="49.59231" lon="4.9768">
        <ele>307.28</ele>
        <time>2018-08-03T08:13:04Z</time>
      </trkpt>
      <trkpt lat="49.59239" lon="4.97671">
        <ele>306.8</ele>
        <time>2018-08-03T08:13:19Z</time>
      </trkpt>
      <trkpt lat="49.59239" lon="4.97671">
        <ele>306.8</ele>
        <time>2018-08-03T08:13:33Z</time>
      </trkpt>
      <trkpt lat="49.59239" lon="4.97669">
        <ele>305.84</ele>
        <time>2018-08-03T08:13:50Z</time>
      </trkpt>
      <trkpt lat="49.59239" lon="4.97669">
        <ele>305.84</ele>
        <time>2018-08-03T08:14:03Z</time>
      </trkpt>
      <trkpt lat="49.59239" lon="4.9767">
        <ele>306.32</ele>
        <time>2018-08-03T08:14:24Z</time>
      </trkpt>
      <trkpt lat="49.59239" lon="4.9767">
        <ele>306.32</ele>
        <time>2018-08-03T08:14:46Z</time>
      </trkpt>
      <trkpt lat="49.59239" lon="4.97669">
        <ele>306.32</ele>
        <time>2018-08-03T08:15:05Z</time>
      </trkpt>
      <trkpt lat="49.5924" lon="4.9767">
        <ele>306.32</ele>
        <time>2018-08-03T08:15:28Z</time>
      </trkpt>
      <trkpt lat="49.5924" lon="4.97669">
        <ele>306.32</ele>
        <time>2018-08-03T08:15:49Z</time>
      </trkpt>
      <trkpt lat="49.59241" lon="4.9767">
        <ele>306.32</ele>
        <time>2018-08-03T08:16:08Z</time>
      </trkpt>
      <trkpt lat="49.59241" lon="4.97669">
        <ele>306.8</ele>
        <time>2018-08-03T08:16:27Z</time>
      </trkpt>
      <trkpt lat="49.59241" lon="4.9767">
        <ele>306.32</ele>
        <time>2018-08-03T08:16:47Z</time>
      </trkpt>
      <trkpt lat="49.59241" lon="4.9767">
        <ele>306.8</ele>
        <time>2018-08-03T08:17:07Z</time>
      </trkpt>
      <trkpt lat="49.59241" lon="4.9767">
        <ele>306.8</ele>
        <time>2018-08-03T08:17:24Z</time>
      </trkpt>
      <trkpt lat="49.59246" lon="4.97663">
        <ele>306.8</ele>
        <time>2018-08-03T08:17:39Z</time>
      </trkpt>
      <trkpt lat="49.59251" lon="4.97658">
        <ele>306.32</ele>
        <time>2018-08-03T08:17:53Z</time>
      </trkpt>
      <trkpt lat="49.59267" lon="4.97638">
        <ele>304.88</ele>
        <time>2018-08-03T08:18:08Z</time>
      </trkpt>
      <trkpt lat="49.59279" lon="4.9762">
        <ele>302.95</ele>
        <time>2018-08-03T08:18:27Z</time>
      </trkpt>
      <trkpt lat="49.59292" lon="4.97607">
        <ele>300.07</ele>
        <time>2018-08-03T08:18:41Z</time>
      </trkpt>
      <trkpt lat="49.59305" lon="4.97589">
        <ele>303.91</ele>
        <time>2018-08-03T08:18:57Z</time>
      </trkpt>
      <trkpt lat="49.5932" lon="4.97569">
        <ele>306.32</ele>
        <time>2018-08-03T08:19:18Z</time>
      </trkpt>
      <trkpt lat="49.59339" lon="4.97546">
        <ele>306.32</ele>
        <time>2018-08-03T08:19:37Z</time>
      </trkpt>
      <trkpt lat="49.59356" lon="4.97525">
        <ele>307.28</ele>
        <time>2018-08-03T08:19:52Z</time>
      </trkpt>
      <trkpt lat="49.59373" lon="4.975">
        <ele>306.8</ele>
        <time>2018-08-03T08:20:10Z</time>
      </trkpt>
      <trkpt lat="49.59373" lon="4.97499">
        <ele>306.8</ele>
        <time>2018-08-03T08:20:11Z</time>
      </trkpt>
      <trkpt lat="49.59388" lon="4.97474">
        <ele>305.36</ele>
        <time>2018-08-03T08:20:30Z</time>
      </trkpt>
      <trkpt lat="49.59396" lon="4.97454">
        <ele>302.95</ele>
        <time>2018-08-03T08:20:44Z</time>
      </trkpt>
      <trkpt lat="49.59404" lon="4.97435">
        <ele>298.63</ele>
        <time>2018-08-03T08:21:01Z</time>
      </trkpt>
      <trkpt lat="49.59411" lon="4.97424">
        <ele>296.7</ele>
        <time>2018-08-03T08:21:15Z</time>
      </trkpt>
      <trkpt lat="49.59421" lon="4.97405">
        <ele>293.82</ele>
        <time>2018-08-03T08:21:32Z</time>
      </trkpt>
      <trkpt lat="49.5943" lon="4.97391">
        <ele>292.38</ele>
        <time>2018-08-03T08:21:49Z</time>
      </trkpt>
      <trkpt lat="49.59431" lon="4.97389">
        <ele>292.38</ele>
        <time>2018-08-03T08:22:04Z</time>
      </trkpt>
      <trkpt lat="49.59432" lon="4.97388">
        <ele>292.38</ele>
        <time>2018-08-03T08:22:35Z</time>
      </trkpt>
      <trkpt lat="49.59437" lon="4.97378">
        <ele>290.46</ele>
        <time>2018-08-03T08:22:56Z</time>
      </trkpt>
      <trkpt lat="49.59449" lon="4.97348">
        <ele>286.61</ele>
        <time>2018-08-03T08:23:15Z</time>
      </trkpt>
      <trkpt lat="49.59457" lon="4.97333">
        <ele>285.17</ele>
        <time>2018-08-03T08:23:28Z</time>
      </trkpt>
      <trkpt lat="49.5946" lon="4.97327">
        <ele>285.17</ele>
        <time>2018-08-03T08:23:31Z</time>
      </trkpt>
      <trkpt lat="49.59474" lon="4.97303">
        <ele>284.69</ele>
        <time>2018-08-03T08:23:46Z</time>
      </trkpt>
      <trkpt lat="49.59487" lon="4.97279">
        <ele>282.77</ele>
        <time>2018-08-03T08:24:01Z</time>
      </trkpt>
      <trkpt lat="49.59491" lon="4.97269">
        <ele>282.28</ele>
        <time>2018-08-03T08:24:07Z</time>
      </trkpt>
      <trkpt lat="49.59502" lon="4.97249">
        <ele>281.8</ele>
        <time>2018-08-03T08:24:24Z</time>
      </trkpt>
      <trkpt lat="49.5952" lon="4.97229">
        <ele>283.73</ele>
        <time>2018-08-03T08:24:40Z</time>
      </trkpt>
      <trkpt lat="49.59535" lon="4.97212">
        <ele>282.28</ele>
        <time>2018-08-03T08:24:56Z</time>
      </trkpt>
      <trkpt lat="49.59548" lon="4.97197">
        <ele>283.73</ele>
        <time>2018-08-03T08:25:10Z</time>
      </trkpt>
      <trkpt lat="49.59558" lon="4.97174">
        <ele>282.28</ele>
        <time>2018-08-03T08:25:27Z</time>
      </trkpt>
      <trkpt lat="49.59563" lon="4.97166">
        <ele>280.84</ele>
        <time>2018-08-03T08:25:40Z</time>
      </trkpt>
      <trkpt lat="49.59567" lon="4.97152">
        <ele>280.36</ele>
        <time>2018-08-03T08:25:55Z</time>
      </trkpt>
      <trkpt lat="49.59573" lon="4.97121">
        <ele>281.32</ele>
        <time>2018-08-03T08:26:12Z</time>
      </trkpt>
      <trkpt lat="49.59581" lon="4.97092">
        <ele>281.8</ele>
        <time>2018-08-03T08:26:28Z</time>
      </trkpt>
      <trkpt lat="49.59585" lon="4.97077">
        <ele>281.8</ele>
        <time>2018-08-03T08:26:37Z</time>
      </trkpt>
      <trkpt lat="49.59592" lon="4.97064">
        <ele>279.4</ele>
        <time>2018-08-03T08:26:51Z</time>
      </trkpt>
      <trkpt lat="49.59594" lon="4.97059">
        <ele>277.48</ele>
        <time>2018-08-03T08:27:06Z</time>
      </trkpt>
      <trkpt lat="49.59593" lon="4.97057">
        <ele>276.52</ele>
        <time>2018-08-03T08:27:27Z</time>
      </trkpt>
      <trkpt lat="49.59594" lon="4.97057">
        <ele>276.04</ele>
        <time>2018-08-03T08:27:45Z</time>
      </trkpt>
      <trkpt lat="49.59595" lon="4.97056">
        <ele>272.19</ele>
        <time>2018-08-03T08:28:10Z</time>
      </trkpt>
      <trkpt lat="49.59594" lon="4.97055">
        <ele>270.75</ele>
        <time>2018-08-03T08:28:28Z</time>
      </trkpt>
      <trkpt lat="49.59596" lon="4.97041">
        <ele>270.75</ele>
        <time>2018-08-03T08:28:45Z</time>
      </trkpt>
      <trkpt lat="49.59598" lon="4.97036">
        <ele>268.83</ele>
        <time>2018-08-03T08:29:02Z</time>
      </trkpt>
      <trkpt lat="49.59604" lon="4.97008">
        <ele>264.5</ele>
        <time>2018-08-03T08:29:19Z</time>
      </trkpt>
      <trkpt lat="49.59605" lon="4.96995">
        <ele>263.06</ele>
        <time>2018-08-03T08:29:32Z</time>
      </trkpt>
      <trkpt lat="49.59609" lon="4.96973">
        <ele>260.17</ele>
        <time>2018-08-03T08:29:47Z</time>
      </trkpt>
      <trkpt lat="49.59615" lon="4.96936">
        <ele>256.33</ele>
        <time>2018-08-03T08:30:06Z</time>
      </trkpt>
      <trkpt lat="49.59621" lon="4.96906">
        <ele>254.89</ele>
        <time>2018-08-03T08:30:23Z</time>
      </trkpt>
      <trkpt lat="49.59628" lon="4.9688">
        <ele>252.48</ele>
        <time>2018-08-03T08:30:41Z</time>
      </trkpt>
      <trkpt lat="49.59636" lon="4.96858">
        <ele>251.04</ele>
        <time>2018-08-03T08:30:55Z</time>
      </trkpt>
      <trkpt lat="49.59637" lon="4.96857">
        <ele>251.04</ele>
        <time>2018-08-03T08:30:56Z</time>
      </trkpt>
      <trkpt lat="49.59643" lon="4.96834">
        <ele>249.6</ele>
        <time>2018-08-03T08:31:11Z</time>
      </trkpt>
      <trkpt lat="49.59647" lon="4.96808">
        <ele>246.72</ele>
        <time>2018-08-03T08:31:27Z</time>
      </trkpt>
      <trkpt lat="49.59653" lon="4.96787">
        <ele>242.39</ele>
        <time>2018-08-03T08:31:43Z</time>
      </trkpt>
      <trkpt lat="49.5966" lon="4.96758">
        <ele>240.95</ele>
        <time>2018-08-03T08:32:00Z</time>
      </trkpt>
      <trkpt lat="49.59663" lon="4.96743">
        <ele>239.51</ele>
        <time>2018-08-03T08:32:13Z</time>
      </trkpt>
      <trkpt lat="49.5967" lon="4.96717">
        <ele>237.1</ele>
        <time>2018-08-03T08:32:28Z</time>
      </trkpt>
      <trkpt lat="49.59675" lon="4.96692">
        <ele>235.66</ele>
        <time>2018-08-03T08:32:42Z</time>
      </trkpt>
      <trkpt lat="49.59676" lon="4.96687">
        <ele>235.18</ele>
        <time>2018-08-03T08:32:45Z</time>
      </trkpt>
      <trkpt lat="49.59679" lon="4.96677">
        <ele>234.22</ele>
        <time>2018-08-03T08:32:51Z</time>
      </trkpt>
      <trkpt lat="49.59688" lon="4.96649">
        <ele>230.37</ele>
        <time>2018-08-03T08:33:09Z</time>
      </trkpt>
      <trkpt lat="49.59695" lon="4.96629">
        <ele>225.09</ele>
        <time>2018-08-03T08:33:27Z</time>
      </trkpt>
      <trkpt lat="49.59699" lon="4.96608">
        <ele>223.64</ele>
        <time>2018-08-03T08:33:38Z</time>
      </trkpt>
      <trkpt lat="49.59701" lon="4.96588">
        <ele>224.61</ele>
        <time>2018-08-03T08:33:48Z</time>
      </trkpt>
      <trkpt lat="49.59704" lon="4.96563">
        <ele>226.05</ele>
        <time>2018-08-03T08:34:04Z</time>
      </trkpt>
      <trkpt lat="49.59712" lon="4.96543">
        <ele>224.61</ele>
        <time>2018-08-03T08:34:19Z</time>
      </trkpt>
      <trkpt lat="49.59719" lon="4.96516">
        <ele>220.28</ele>
        <time>2018-08-03T08:34:35Z</time>
      </trkpt>
      <trkpt lat="49.59727" lon="4.96492">
        <ele>215.47</ele>
        <time>2018-08-03T08:34:52Z</time>
      </trkpt>
      <trkpt lat="49.59727" lon="4.96489">
        <ele>215.47</ele>
        <time>2018-08-03T08:34:54Z</time>
      </trkpt>
      <trkpt lat="49.59731" lon="4.9648">
        <ele>214.99</ele>
        <time>2018-08-03T08:35:00Z</time>
      </trkpt>
      <trkpt lat="49.59734" lon="4.96455">
        <ele>214.03</ele>
        <time>2018-08-03T08:35:15Z</time>
      </trkpt>
      <trkpt lat="49.59735" lon="4.96451">
        <ele>214.03</ele>
        <time>2018-08-03T08:35:17Z</time>
      </trkpt>
      <trkpt lat="49.5974" lon="4.96429">
        <ele>211.15</ele>
        <time>2018-08-03T08:35:31Z</time>
      </trkpt>
      <trkpt lat="49.5974" lon="4.96428">
        <ele>211.15</ele>
        <time>2018-08-03T08:35:32Z</time>
      </trkpt>
      <trkpt lat="49.5974" lon="4.96411">
        <ele>209.7</ele>
        <time>2018-08-03T08:35:43Z</time>
      </trkpt>
      <trkpt lat="49.59741" lon="4.96402">
        <ele>209.7</ele>
        <time>2018-08-03T08:35:56Z</time>
      </trkpt>
      <trkpt lat="49.59744" lon="4.9639">
        <ele>209.22</ele>
        <time>2018-08-03T08:36:09Z</time>
      </trkpt>
      <trkpt lat="49.59745" lon="4.96385">
        <ele>209.22</ele>
        <time>2018-08-03T08:36:13Z</time>
      </trkpt>
      <trkpt lat="49.59749" lon="4.9636">
        <ele>209.7</ele>
        <time>2018-08-03T08:36:27Z</time>
      </trkpt>
      <trkpt lat="49.59751" lon="4.96345">
        <ele>210.19</ele>
        <time>2018-08-03T08:36:37Z</time>
      </trkpt>
      <trkpt lat="49.59754" lon="4.96316">
        <ele>212.11</ele>
        <time>2018-08-03T08:36:54Z</time>
      </trkpt>
      <trkpt lat="49.59759" lon="4.96303">
        <ele>212.11</ele>
        <time>2018-08-03T08:37:08Z</time>
      </trkpt>
      <trkpt lat="49.59762" lon="4.96296">
        <ele>211.63</ele>
        <time>2018-08-03T08:37:14Z</time>
      </trkpt>
      <trkpt lat="49.59764" lon="4.9629">
        <ele>211.15</ele>
        <time>2018-08-03T08:37:29Z</time>
      </trkpt>
      <trkpt lat="49.59772" lon="4.96276">
        <ele>208.26</ele>
        <time>2018-08-03T08:37:43Z</time>
      </trkpt>
      <trkpt lat="49.59776" lon="4.96258">
        <ele>206.34</ele>
        <time>2018-08-03T08:37:58Z</time>
      </trkpt>
      <trkpt lat="49.59784" lon="4.9623">
        <ele>203.46</ele>
        <time>2018-08-03T08:38:15Z</time>
      </trkpt>
      <trkpt lat="49.59791" lon="4.96209">
        <ele>203.46</ele>
        <time>2018-08-03T08:38:28Z</time>
      </trkpt>
      <trkpt lat="49.59792" lon="4.96199">
        <ele>203.46</ele>
        <time>2018-08-03T08:38:46Z</time>
      </trkpt>
      <trkpt lat="49.59794" lon="4.96192">
        <ele>202.98</ele>
        <time>2018-08-03T08:39:03Z</time>
      </trkpt>
      <trkpt lat="49.59794" lon="4.9619">
        <ele>202.98</ele>
        <time>2018-08-03T08:39:08Z</time>
      </trkpt>
      <trkpt lat="49.59799" lon="4.96166">
        <ele>202.49</ele>
        <time>2018-08-03T08:39:22Z</time>
      </trkpt>
      <trkpt lat="49.59803" lon="4.96142">
        <ele>202.98</ele>
        <time>2018-08-03T08:39:37Z</time>
      </trkpt>
      <trkpt lat="49.59806" lon="4.96133">
        <ele>203.46</ele>
        <time>2018-08-03T08:39:51Z</time>
      </trkpt>
      <trkpt lat="49.59812" lon="4.96104">
        <ele>204.42</ele>
        <time>2018-08-03T08:40:08Z</time>
      </trkpt>
      <trkpt lat="49.59814" lon="4.96094">
        <ele>203.46</ele>
        <time>2018-08-03T08:40:21Z</time>
      </trkpt>
      <trkpt lat="49.59816" lon="4.96087">
        <ele>203.94</ele>
        <time>2018-08-03T08:40:40Z</time>
      </trkpt>
      <trkpt lat="49.5982" lon="4.96078">
        <ele>203.94</ele>
        <time>2018-08-03T08:40:53Z</time>
      </trkpt>
      <trkpt lat="49.59826" lon="4.96062">
        <ele>205.38</ele>
        <time>2018-08-03T08:41:05Z</time>
      </trkpt>
      <trkpt lat="49.59829" lon="4.96058">
        <ele>205.86</ele>
        <time>2018-08-03T08:41:16Z</time>
      </trkpt>
      <trkpt lat="49.59831" lon="4.96055">
        <ele>206.34</ele>
        <time>2018-08-03T08:41:18Z</time>
      </trkpt>
      <trkpt lat="49.59832" lon="4.96051">
        <ele>208.26</ele>
        <time>2018-08-03T08:41:30Z</time>
      </trkpt>
      <trkpt lat="49.59834" lon="4.9605">
        <ele>207.78</ele>
        <time>2018-08-03T08:41:43Z</time>
      </trkpt>
      <trkpt lat="49.59837" lon="4.96043">
        <ele>207.78</ele>
        <time>2018-08-03T08:41:56Z</time>
      </trkpt>
      <trkpt lat="49.59842" lon="4.96026">
        <ele>206.82</ele>
        <time>2018-08-03T08:42:09Z</time>
      </trkpt>
      <trkpt lat="49.59844" lon="4.96019">
        <ele>207.78</ele>
        <time>2018-08-03T08:42:14Z</time>
      </trkpt>
      <trkpt lat="49.59849" lon="4.9601">
        <ele>207.78</ele>
        <time>2018-08-03T08:42:20Z</time>
      </trkpt>
      <trkpt lat="49.5986" lon="4.95994">
        <ele>211.15</ele>
        <time>2018-08-03T08:42:35Z</time>
      </trkpt>
      <trkpt lat="49.59866" lon="4.95989">
        <ele>210.67</ele>
        <time>2018-08-03T08:42:46Z</time>
      </trkpt>
      <trkpt lat="49.59868" lon="4.95987">
        <ele>209.7</ele>
        <time>2018-08-03T08:42:57Z</time>
      </trkpt>
      <trkpt lat="49.5987" lon="4.95981">
        <ele>209.7</ele>
        <time>2018-08-03T08:43:03Z</time>
      </trkpt>
      <trkpt lat="49.59882" lon="4.95964">
        <ele>209.7</ele>
        <time>2018-08-03T08:43:18Z</time>
      </trkpt>
      <trkpt lat="49.5989" lon="4.95952">
        <ele>211.15</ele>
        <time>2018-08-03T08:43:32Z</time>
      </trkpt>
      <trkpt lat="49.59897" lon="4.95941">
        <ele>210.67</ele>
        <time>2018-08-03T08:43:45Z</time>
      </trkpt>
      <trkpt lat="49.59908" lon="4.95927">
        <ele>210.67</ele>
        <time>2018-08-03T08:43:57Z</time>
      </trkpt>
      <trkpt lat="49.59912" lon="4.95921">
        <ele>211.15</ele>
        <time>2018-08-03T08:44:08Z</time>
      </trkpt>
      <trkpt lat="49.59922" lon="4.95906">
        <ele>209.22</ele>
        <time>2018-08-03T08:44:20Z</time>
      </trkpt>
      <trkpt lat="49.59928" lon="4.95898">
        <ele>208.74</ele>
        <time>2018-08-03T08:44:29Z</time>
      </trkpt>
      <trkpt lat="49.59935" lon="4.95884">
        <ele>208.26</ele>
        <time>2018-08-03T08:44:46Z</time>
      </trkpt>
      <trkpt lat="49.59939" lon="4.95876">
        <ele>207.78</ele>
        <time>2018-08-03T08:45:00Z</time>
      </trkpt>
      <trkpt lat="49.59948" lon="4.95871">
        <ele>206.34</ele>
        <time>2018-08-03T08:45:11Z</time>
      </trkpt>
      <trkpt lat="49.5996" lon="4.95858">
        <ele>210.19</ele>
        <time>2018-08-03T08:45:27Z</time>
      </trkpt>
      <trkpt lat="49.59979" lon="4.9584">
        <ele>215.47</ele>
        <time>2018-08-03T08:45:44Z</time>
      </trkpt>
      <trkpt lat="49.59993" lon="4.95832">
        <ele>214.51</ele>
        <time>2018-08-03T08:45:57Z</time>
      </trkpt>
      <trkpt lat="49.60009" lon="4.95817">
        <ele>218.36</ele>
        <time>2018-08-03T08:46:14Z</time>
      </trkpt>
      <trkpt lat="49.6001" lon="4.95816">
        <ele>218.36</ele>
        <time>2018-08-03T08:46:16Z</time>
      </trkpt>
      <trkpt lat="49.60031" lon="4.95815">
        <ele>219.32</ele>
        <time>2018-08-03T08:46:34Z</time>
      </trkpt>
      <trkpt lat="49.60046" lon="4.95817">
        <ele>222.2</ele>
        <time>2018-08-03T08:46:50Z</time>
      </trkpt>
      <trkpt lat="49.60049" lon="4.95816">
        <ele>223.64</ele>
        <time>2018-08-03T08:46:53Z</time>
      </trkpt>
      <trkpt lat="49.60068" lon="4.9582">
        <ele>227.01</ele>
        <time>2018-08-03T08:47:10Z</time>
      </trkpt>
      <trkpt lat="49.60085" lon="4.95822">
        <ele>227.49</ele>
        <time>2018-08-03T08:47:24Z</time>
      </trkpt>
      <trkpt lat="49.60099" lon="4.95818">
        <ele>221.72</ele>
        <time>2018-08-03T08:47:37Z</time>
      </trkpt>
      <trkpt lat="49.60108" lon="4.95811">
        <ele>222.68</ele>
        <time>2018-08-03T08:47:46Z</time>
      </trkpt>
      <trkpt lat="49.60114" lon="4.95806">
        <ele>226.53</ele>
        <time>2018-08-03T08:47:57Z</time>
      </trkpt>
      <trkpt lat="49.6012" lon="4.958">
        <ele>231.81</ele>
        <time>2018-08-03T08:48:06Z</time>
      </trkpt>
      <trkpt lat="49.60138" lon="4.9579">
        <ele>235.18</ele>
        <time>2018-08-03T08:48:20Z</time>
      </trkpt>
      <trkpt lat="49.60146" lon="4.95792">
        <ele>235.18</ele>
        <time>2018-08-03T08:48:32Z</time>
      </trkpt>
      <trkpt lat="49.60158" lon="4.95796">
        <ele>236.62</ele>
        <time>2018-08-03T08:48:47Z</time>
      </trkpt>
      <trkpt lat="49.60171" lon="4.95792">
        <ele>234.22</ele>
        <time>2018-08-03T08:48:58Z</time>
      </trkpt>
      <trkpt lat="49.60174" lon="4.95788">
        <ele>232.3</ele>
        <time>2018-08-03T08:49:02Z</time>
      </trkpt>
      <trkpt lat="49.60179" lon="4.95769">
        <ele>219.8</ele>
        <time>2018-08-03T08:49:19Z</time>
      </trkpt>
      <trkpt lat="49.6018" lon="4.95767">
        <ele>219.32</ele>
        <time>2018-08-03T08:49:21Z</time>
      </trkpt>
      <trkpt lat="49.60189" lon="4.95758">
        <ele>218.84</ele>
        <time>2018-08-03T08:49:31Z</time>
      </trkpt>
      <trkpt lat="49.60193" lon="4.95756">
        <ele>218.36</ele>
        <time>2018-08-03T08:49:34Z</time>
      </trkpt>
      <trkpt lat="49.60207" lon="4.95755">
        <ele>220.28</ele>
        <time>2018-08-03T08:49:47Z</time>
      </trkpt>
      <trkpt lat="49.60214" lon="4.95753">
        <ele>220.28</ele>
        <time>2018-08-03T08:49:59Z</time>
      </trkpt>
      <trkpt lat="49.60226" lon="4.95754">
        <ele>217.4</ele>
        <time>2018-08-03T08:50:13Z</time>
      </trkpt>
      <trkpt lat="49.60239" lon="4.95751">
        <ele>215.47</ele>
        <time>2018-08-03T08:50:28Z</time>
      </trkpt>
      <trkpt lat="49.60245" lon="4.95749">
        <ele>219.32</ele>
        <time>2018-08-03T08:50:35Z</time>
      </trkpt>
      <trkpt lat="49.60248" lon="4.95742">
        <ele>220.76</ele>
        <time>2018-08-03T08:50:39Z</time>
      </trkpt>
      <trkpt lat="49.60252" lon="4.95733">
        <ele>219.8</ele>
        <time>2018-08-03T08:50:45Z</time>
      </trkpt>
      <trkpt lat="49.60265" lon="4.95723">
        <ele>215.95</ele>
        <time>2018-08-03T08:51:00Z</time>
      </trkpt>
      <trkpt lat="49.60267" lon="4.95723">
        <ele>215.47</ele>
        <time>2018-08-03T08:51:01Z</time>
      </trkpt>
      <trkpt lat="49.60286" lon="4.95722">
        <ele>213.07</ele>
        <time>2018-08-03T08:51:18Z</time>
      </trkpt>
      <trkpt lat="49.60305" lon="4.95725">
        <ele>211.63</ele>
        <time>2018-08-03T08:51:34Z</time>
      </trkpt>
      <trkpt lat="49.60312" lon="4.95724">
        <ele>210.67</ele>
        <time>2018-08-03T08:51:40Z</time>
      </trkpt>
      <trkpt lat="49.60317" lon="4.95725">
        <ele>210.19</ele>
        <time>2018-08-03T08:51:44Z</time>
      </trkpt>
      <trkpt lat="49.60324" lon="4.95709">
        <ele>208.26</ele>
        <time>2018-08-03T08:51:57Z</time>
      </trkpt>
      <trkpt lat="49.60325" lon="4.95703">
        <ele>208.26</ele>
        <time>2018-08-03T08:52:00Z</time>
      </trkpt>
      <trkpt lat="49.60327" lon="4.95693">
        <ele>207.78</ele>
        <time>2018-08-03T08:52:05Z</time>
      </trkpt>
      <trkpt lat="49.60334" lon="4.95686">
        <ele>206.82</ele>
        <time>2018-08-03T08:52:16Z</time>
      </trkpt>
      <trkpt lat="49.60341" lon="4.95689">
        <ele>207.3</ele>
        <time>2018-08-03T08:52:25Z</time>
      </trkpt>
      <trkpt lat="49.60361" lon="4.957">
        <ele>206.82</ele>
        <time>2018-08-03T08:52:43Z</time>
      </trkpt>
      <trkpt lat="49.60374" lon="4.95706">
        <ele>205.38</ele>
        <time>2018-08-03T08:52:58Z</time>
      </trkpt>
      <trkpt lat="49.60375" lon="4.95707">
        <ele>205.38</ele>
        <time>2018-08-03T08:52:59Z</time>
      </trkpt>
      <trkpt lat="49.60377" lon="4.95709">
        <ele>205.38</ele>
        <time>2018-08-03T08:53:01Z</time>
      </trkpt>
      <trkpt lat="49.60384" lon="4.95681">
        <ele>202.01</ele>
        <time>2018-08-03T08:53:16Z</time>
      </trkpt>
      <trkpt lat="49.6039" lon="4.95664">
        <ele>202.49</ele>
        <time>2018-08-03T08:53:30Z</time>
      </trkpt>
      <trkpt lat="49.60394" lon="4.95642">
        <ele>204.42</ele>
        <time>2018-08-03T08:53:43Z</time>
      </trkpt>
      <trkpt lat="49.60394" lon="4.95639">
        <ele>204.42</ele>
        <time>2018-08-03T08:53:46Z</time>
      </trkpt>
      <trkpt lat="49.60396" lon="4.95625">
        <ele>204.42</ele>
        <time>2018-08-03T08:53:53Z</time>
      </trkpt>
      <trkpt lat="49.60398" lon="4.95611">
        <ele>206.82</ele>
        <time>2018-08-03T08:54:02Z</time>
      </trkpt>
      <trkpt lat="49.604" lon="4.956">
        <ele>207.3</ele>
        <time>2018-08-03T08:54:08Z</time>
      </trkpt>
      <trkpt lat="49.60403" lon="4.95573">
        <ele>208.74</ele>
        <time>2018-08-03T08:54:23Z</time>
      </trkpt>
      <trkpt lat="49.60408" lon="4.95555">
        <ele>207.3</ele>
        <time>2018-08-03T08:54:33Z</time>
      </trkpt>
      <trkpt lat="49.60411" lon="4.95547">
        <ele>205.38</ele>
        <time>2018-08-03T08:54:37Z</time>
      </trkpt>
      <trkpt lat="49.60425" lon="4.95533">
        <ele>200.09</ele>
        <time>2018-08-03T08:54:53Z</time>
      </trkpt>
      <trkpt lat="49.60442" lon="4.95522">
        <ele>197.69</ele>
        <time>2018-08-03T08:55:08Z</time>
      </trkpt>
      <trkpt lat="49.60459" lon="4.95512">
        <ele>198.65</ele>
        <time>2018-08-03T08:55:22Z</time>
      </trkpt>
      <trkpt lat="49.60478" lon="4.95502">
        <ele>199.13</ele>
        <time>2018-08-03T08:55:37Z</time>
      </trkpt>
      <trkpt lat="49.60488" lon="4.95495">
        <ele>198.65</ele>
        <time>2018-08-03T08:55:47Z</time>
      </trkpt>
      <trkpt lat="49.60505" lon="4.95485">
        <ele>196.73</ele>
        <time>2018-08-03T08:56:04Z</time>
      </trkpt>
      <trkpt lat="49.60521" lon="4.95472">
        <ele>193.36</ele>
        <time>2018-08-03T08:56:19Z</time>
      </trkpt>
      <trkpt lat="49.60531" lon="4.95461">
        <ele>191.44</ele>
        <time>2018-08-03T08:56:34Z</time>
      </trkpt>
      <trkpt lat="49.60539" lon="4.95455">
        <ele>192.88</ele>
        <time>2018-08-03T08:56:51Z</time>
      </trkpt>
      <trkpt lat="49.60549" lon="4.95452">
        <ele>192.88</ele>
        <time>2018-08-03T08:57:06Z</time>
      </trkpt>
      <trkpt lat="49.60564" lon="4.95448">
        <ele>195.28</ele>
        <time>2018-08-03T08:57:20Z</time>
      </trkpt>
      <trkpt lat="49.60582" lon="4.95442">
        <ele>198.17</ele>
        <time>2018-08-03T08:57:37Z</time>
      </trkpt>
      <trkpt lat="49.6059" lon="4.9544">
        <ele>197.69</ele>
        <time>2018-08-03T08:57:50Z</time>
      </trkpt>
      <trkpt lat="49.60597" lon="4.9544">
        <ele>197.21</ele>
        <time>2018-08-03T08:58:02Z</time>
      </trkpt>
      <trkpt lat="49.60597" lon="4.9544">
        <ele>197.21</ele>
        <time>2018-08-03T08:58:03Z</time>
      </trkpt>
      <trkpt lat="49.60602" lon="4.95437">
        <ele>196.73</ele>
        <time>2018-08-03T08:58:16Z</time>
      </trkpt>
      <trkpt lat="49.60605" lon="4.95435">
        <ele>196.73</ele>
        <time>2018-08-03T08:58:20Z</time>
      </trkpt>
      <trkpt lat="49.60624" lon="4.9543">
        <ele>199.13</ele>
        <time>2018-08-03T08:58:35Z</time>
      </trkpt>
      <trkpt lat="49.60643" lon="4.9543">
        <ele>198.65</ele>
        <time>2018-08-03T08:58:49Z</time>
      </trkpt>
      <trkpt lat="49.60663" lon="4.95425">
        <ele>197.21</ele>
        <time>2018-08-03T08:59:05Z</time>
      </trkpt>
      <trkpt lat="49.6068" lon="4.95418">
        <ele>196.25</ele>
        <time>2018-08-03T08:59:20Z</time>
      </trkpt>
      <trkpt lat="49.60688" lon="4.95416">
        <ele>195.28</ele>
        <time>2018-08-03T08:59:29Z</time>
      </trkpt>
      <trkpt lat="49.60696" lon="4.95417">
        <ele>192.88</ele>
        <time>2018-08-03T08:59:35Z</time>
      </trkpt>
      <trkpt lat="49.60703" lon="4.95415">
        <ele>190.48</ele>
        <time>2018-08-03T08:59:43Z</time>
      </trkpt>
      <trkpt lat="49.60706" lon="4.95414">
        <ele>190</ele>
        <time>2018-08-03T08:59:45Z</time>
      </trkpt>
      <trkpt lat="49.60721" lon="4.9541">
        <ele>187.11</ele>
        <time>2018-08-03T08:59:58Z</time>
      </trkpt>
      <trkpt lat="49.60737" lon="4.9541">
        <ele>185.19</ele>
        <time>2018-08-03T09:00:14Z</time>
      </trkpt>
      <trkpt lat="49.60752" lon="4.9541">
        <ele>185.19</ele>
        <time>2018-08-03T09:00:28Z</time>
      </trkpt>
      <trkpt lat="49.60769" lon="4.95413">
        <ele>188.08</ele>
        <time>2018-08-03T09:00:40Z</time>
      </trkpt>
      <trkpt lat="49.6077" lon="4.95413">
        <ele>188.08</ele>
        <time>2018-08-03T09:00:42Z</time>
      </trkpt>
      <trkpt lat="49.60777" lon="4.95412">
        <ele>188.56</ele>
        <time>2018-08-03T09:00:47Z</time>
      </trkpt>
      <trkpt lat="49.60792" lon="4.95413">
        <ele>185.67</ele>
        <time>2018-08-03T09:01:01Z</time>
      </trkpt>
      <trkpt lat="49.60807" lon="4.95415">
        <ele>186.15</ele>
        <time>2018-08-03T09:01:14Z</time>
      </trkpt>
      <trkpt lat="49.60822" lon="4.95422">
        <ele>182.79</ele>
        <time>2018-08-03T09:01:26Z</time>
      </trkpt>
      <trkpt lat="49.60836" lon="4.95432">
        <ele>182.79</ele>
        <time>2018-08-03T09:01:41Z</time>
      </trkpt>
      <trkpt lat="49.60848" lon="4.95449">
        <ele>184.23</ele>
        <time>2018-08-03T09:01:55Z</time>
      </trkpt>
      <trkpt lat="49.60865" lon="4.95463">
        <ele>185.67</ele>
        <time>2018-08-03T09:02:11Z</time>
      </trkpt>
      <trkpt lat="49.60871" lon="4.95471">
        <ele>187.11</ele>
        <time>2018-08-03T09:02:24Z</time>
      </trkpt>
      <trkpt lat="49.60882" lon="4.95484">
        <ele>185.67</ele>
        <time>2018-08-03T09:02:39Z</time>
      </trkpt>
      <trkpt lat="49.60897" lon="4.95496">
        <ele>183.75</ele>
        <time>2018-08-03T09:02:54Z</time>
      </trkpt>
      <trkpt lat="49.60908" lon="4.95498">
        <ele>183.27</ele>
        <time>2018-08-03T09:03:10Z</time>
      </trkpt>
      <trkpt lat="49.60899" lon="4.95508">
        <ele>182.79</ele>
        <time>2018-08-03T09:03:35Z</time>
      </trkpt>
      <trkpt lat="49.60899" lon="4.95508">
        <ele>182.79</ele>
        <time>2018-08-03T09:03:56Z</time>
      </trkpt>
      <trkpt lat="49.60898" lon="4.95516">
        <ele>183.27</ele>
        <time>2018-08-03T09:04:14Z</time>
      </trkpt>
      <trkpt lat="49.60901" lon="4.95499">
        <ele>183.75</ele>
        <time>2018-08-03T09:04:36Z</time>
      </trkpt>
      <trkpt lat="49.609" lon="4.955">
        <ele>183.75</ele>
        <time>2018-08-03T09:04:57Z</time>
      </trkpt>
      <trkpt lat="49.60893" lon="4.95498">
        <ele>183.75</ele>
        <time>2018-08-03T09:05:19Z</time>
      </trkpt>
      <trkpt lat="49.60896" lon="4.95494">
        <ele>183.75</ele>
        <time>2018-08-03T09:05:42Z</time>
      </trkpt>
      <trkpt lat="49.60891" lon="4.95493">
        <ele>183.75</ele>
        <time>2018-08-03T09:06:03Z</time>
      </trkpt>
      <trkpt lat="49.60897" lon="4.95494">
        <ele>183.75</ele>
        <time>2018-08-03T09:06:28Z</time>
      </trkpt>
      <trkpt lat="49.60905" lon="4.955">
        <ele>182.79</ele>
        <time>2018-08-03T09:06:48Z</time>
      </trkpt>
      <trkpt lat="49.60904" lon="4.95497">
        <ele>180.87</ele>
        <time>2018-08-03T09:07:04Z</time>
      </trkpt>
      <trkpt lat="49.60898" lon="4.95493">
        <ele>183.75</ele>
        <time>2018-08-03T09:07:21Z</time>
      </trkpt>
      <trkpt lat="49.60884" lon="4.95484">
        <ele>184.23</ele>
        <time>2018-08-03T09:07:34Z</time>
      </trkpt>
      <trkpt lat="49.60882" lon="4.95482">
        <ele>184.23</ele>
        <time>2018-08-03T09:07:37Z</time>
      </trkpt>
      <trkpt lat="49.60877" lon="4.95479">
        <ele>185.19</ele>
        <time>2018-08-03T09:07:41Z</time>
      </trkpt>
      <trkpt lat="49.6087" lon="4.95469">
        <ele>183.75</ele>
        <time>2018-08-03T09:07:51Z</time>
      </trkpt>
      <trkpt lat="49.60866" lon="4.95462">
        <ele>184.23</ele>
        <time>2018-08-03T09:07:56Z</time>
      </trkpt>
      <trkpt lat="49.60866" lon="4.95455">
        <ele>185.67</ele>
        <time>2018-08-03T09:08:08Z</time>
      </trkpt>
      <trkpt lat="49.60868" lon="4.95454">
        <ele>186.15</ele>
        <time>2018-08-03T09:08:13Z</time>
      </trkpt>
      <trkpt lat="49.60869" lon="4.95455">
        <ele>186.63</ele>
        <time>2018-08-03T09:08:15Z</time>
      </trkpt>
      <trkpt lat="49.60884" lon="4.95459">
        <ele>189.04</ele>
        <time>2018-08-03T09:08:31Z</time>
      </trkpt>
      <trkpt lat="49.60902" lon="4.95467">
        <ele>190.96</ele>
        <time>2018-08-03T09:08:45Z</time>
      </trkpt>
      <trkpt lat="49.60916" lon="4.95474">
        <ele>192.88</ele>
        <time>2018-08-03T09:08:59Z</time>
      </trkpt>
      <trkpt lat="49.60931" lon="4.95481">
        <ele>194.32</ele>
        <time>2018-08-03T09:09:13Z</time>
      </trkpt>
      <trkpt lat="49.60941" lon="4.95485">
        <ele>193.36</ele>
        <time>2018-08-03T09:09:23Z</time>
      </trkpt>
      <trkpt lat="49.60946" lon="4.95488">
        <ele>193.84</ele>
        <time>2018-08-03T09:09:27Z</time>
      </trkpt>
      <trkpt lat="49.60962" lon="4.95494">
        <ele>193.36</ele>
        <time>2018-08-03T09:09:41Z</time>
      </trkpt>
      <trkpt lat="49.60977" lon="4.95503">
        <ele>190.96</ele>
        <time>2018-08-03T09:09:55Z</time>
      </trkpt>
      <trkpt lat="49.60995" lon="4.95513">
        <ele>188.56</ele>
        <time>2018-08-03T09:10:10Z</time>
      </trkpt>
      <trkpt lat="49.61012" lon="4.95523">
        <ele>187.59</ele>
        <time>2018-08-03T09:10:23Z</time>
      </trkpt>
      <trkpt lat="49.61024" lon="4.95532">
        <ele>189.04</ele>
        <time>2018-08-03T09:10:37Z</time>
      </trkpt>
      <trkpt lat="49.61036" lon="4.95537">
        <ele>189.04</ele>
        <time>2018-08-03T09:10:50Z</time>
      </trkpt>
      <trkpt lat="49.61054" lon="4.95544">
        <ele>190</ele>
        <time>2018-08-03T09:11:05Z</time>
      </trkpt>
      <trkpt lat="49.6107" lon="4.95542">
        <ele>190.48</ele>
        <time>2018-08-03T09:11:18Z</time>
      </trkpt>
      <trkpt lat="49.61073" lon="4.95542">
        <ele>190.48</ele>
        <time>2018-08-03T09:11:21Z</time>
      </trkpt>
      <trkpt lat="49.61093" lon="4.95528">
        <ele>192.88</ele>
        <time>2018-08-03T09:11:36Z</time>
      </trkpt>
      <trkpt lat="49.61109" lon="4.95525">
        <ele>194.32</ele>
        <time>2018-08-03T09:11:50Z</time>
      </trkpt>
      <trkpt lat="49.61122" lon="4.95528">
        <ele>195.28</ele>
        <time>2018-08-03T09:12:05Z</time>
      </trkpt>
      <trkpt lat="49.61141" lon="4.95533">
        <ele>197.69</ele>
        <time>2018-08-03T09:12:20Z</time>
      </trkpt>
      <trkpt lat="49.61145" lon="4.95535">
        <ele>198.17</ele>
        <time>2018-08-03T09:12:23Z</time>
      </trkpt>
      <trkpt lat="49.61166" lon="4.95543">
        <ele>201.53</ele>
        <time>2018-08-03T09:12:41Z</time>
      </trkpt>
      <trkpt lat="49.61185" lon="4.9555">
        <ele>205.38</ele>
        <time>2018-08-03T09:12:56Z</time>
      </trkpt>
      <trkpt lat="49.61199" lon="4.95553">
        <ele>205.38</ele>
        <time>2018-08-03T09:13:09Z</time>
      </trkpt>
      <trkpt lat="49.61208" lon="4.95558">
        <ele>205.38</ele>
        <time>2018-08-03T09:13:25Z</time>
      </trkpt>
      <trkpt lat="49.6122" lon="4.9556">
        <ele>202.49</ele>
        <time>2018-08-03T09:13:39Z</time>
      </trkpt>
      <trkpt lat="49.61235" lon="4.95567">
        <ele>201.53</ele>
        <time>2018-08-03T09:13:53Z</time>
      </trkpt>
      <trkpt lat="49.61249" lon="4.95575">
        <ele>198.65</ele>
        <time>2018-08-03T09:14:07Z</time>
      </trkpt>
      <trkpt lat="49.61262" lon="4.95579">
        <ele>197.21</ele>
        <time>2018-08-03T09:14:21Z</time>
      </trkpt>
      <trkpt lat="49.61277" lon="4.95585">
        <ele>195.28</ele>
        <time>2018-08-03T09:14:37Z</time>
      </trkpt>
      <trkpt lat="49.61295" lon="4.95602">
        <ele>198.17</ele>
        <time>2018-08-03T09:14:54Z</time>
      </trkpt>
      <trkpt lat="49.61299" lon="4.95605">
        <ele>199.61</ele>
        <time>2018-08-03T09:14:57Z</time>
      </trkpt>
      <trkpt lat="49.61309" lon="4.95613">
        <ele>198.65</ele>
        <time>2018-08-03T09:15:08Z</time>
      </trkpt>
      <trkpt lat="49.6132" lon="4.95622">
        <ele>199.13</ele>
        <time>2018-08-03T09:15:17Z</time>
      </trkpt>
      <trkpt lat="49.61329" lon="4.95632">
        <ele>198.65</ele>
        <time>2018-08-03T09:15:29Z</time>
      </trkpt>
      <trkpt lat="49.61333" lon="4.95652">
        <ele>197.21</ele>
        <time>2018-08-03T09:15:43Z</time>
      </trkpt>
      <trkpt lat="49.61334" lon="4.95653">
        <ele>197.21</ele>
        <time>2018-08-03T09:15:44Z</time>
      </trkpt>
      <trkpt lat="49.61341" lon="4.95673">
        <ele>198.17</ele>
        <time>2018-08-03T09:15:54Z</time>
      </trkpt>
      <trkpt lat="49.6135" lon="4.95695">
        <ele>196.25</ele>
        <time>2018-08-03T09:16:09Z</time>
      </trkpt>
      <trkpt lat="49.61354" lon="4.95701">
        <ele>195.77</ele>
        <time>2018-08-03T09:16:12Z</time>
      </trkpt>
      <trkpt lat="49.6137" lon="4.95724">
        <ele>194.32</ele>
        <time>2018-08-03T09:16:28Z</time>
      </trkpt>
      <trkpt lat="49.61381" lon="4.95738">
        <ele>192.88</ele>
        <time>2018-08-03T09:16:42Z</time>
      </trkpt>
      <trkpt lat="49.61394" lon="4.95755">
        <ele>194.32</ele>
        <time>2018-08-03T09:16:56Z</time>
      </trkpt>
      <trkpt lat="49.61412" lon="4.95771">
        <ele>194.32</ele>
        <time>2018-08-03T09:17:11Z</time>
      </trkpt>
      <trkpt lat="49.61426" lon="4.95784">
        <ele>194.32</ele>
        <time>2018-08-03T09:17:26Z</time>
      </trkpt>
      <trkpt lat="49.61442" lon="4.95793">
        <ele>191.92</ele>
        <time>2018-08-03T09:17:40Z</time>
      </trkpt>
      <trkpt lat="49.61453" lon="4.95805">
        <ele>192.88</ele>
        <time>2018-08-03T09:17:52Z</time>
      </trkpt>
      <trkpt lat="49.6147" lon="4.95821">
        <ele>197.69</ele>
        <time>2018-08-03T09:18:06Z</time>
      </trkpt>
      <trkpt lat="49.61485" lon="4.95833">
        <ele>199.61</ele>
        <time>2018-08-03T09:18:22Z</time>
      </trkpt>
      <trkpt lat="49.615" lon="4.95842">
        <ele>200.09</ele>
        <time>2018-08-03T09:18:35Z</time>
      </trkpt>
      <trkpt lat="49.61516" lon="4.95849">
        <ele>202.49</ele>
        <time>2018-08-03T09:18:49Z</time>
      </trkpt>
      <trkpt lat="49.61529" lon="4.95856">
        <ele>202.49</ele>
        <time>2018-08-03T09:19:03Z</time>
      </trkpt>
      <trkpt lat="49.61546" lon="4.95864">
        <ele>204.9</ele>
        <time>2018-08-03T09:19:18Z</time>
      </trkpt>
      <trkpt lat="49.61563" lon="4.95874">
        <ele>203.94</ele>
        <time>2018-08-03T09:19:32Z</time>
      </trkpt>
      <trkpt lat="49.61582" lon="4.95887">
        <ele>202.49</ele>
        <time>2018-08-03T09:19:49Z</time>
      </trkpt>
      <trkpt lat="49.6159" lon="4.95893">
        <ele>201.53</ele>
        <time>2018-08-03T09:19:54Z</time>
      </trkpt>
      <trkpt lat="49.61602" lon="4.95903">
        <ele>202.49</ele>
        <time>2018-08-03T09:20:06Z</time>
      </trkpt>
      <trkpt lat="49.61619" lon="4.95914">
        <ele>199.13</ele>
        <time>2018-08-03T09:20:21Z</time>
      </trkpt>
      <trkpt lat="49.61631" lon="4.95921">
        <ele>197.69</ele>
        <time>2018-08-03T09:20:33Z</time>
      </trkpt>
      <trkpt lat="49.61646" lon="4.95938">
        <ele>201.53</ele>
        <time>2018-08-03T09:20:47Z</time>
      </trkpt>
      <trkpt lat="49.6166" lon="4.95947">
        <ele>202.01</ele>
        <time>2018-08-03T09:21:03Z</time>
      </trkpt>
      <trkpt lat="49.61668" lon="4.95952">
        <ele>201.05</ele>
        <time>2018-08-03T09:21:09Z</time>
      </trkpt>
      <trkpt lat="49.61673" lon="4.95955">
        <ele>202.01</ele>
        <time>2018-08-03T09:21:13Z</time>
      </trkpt>
      <trkpt lat="49.61684" lon="4.95957">
        <ele>205.38</ele>
        <time>2018-08-03T09:21:22Z</time>
      </trkpt>
      <trkpt lat="49.61688" lon="4.95962">
        <ele>208.26</ele>
        <time>2018-08-03T09:21:29Z</time>
      </trkpt>
      <trkpt lat="49.61693" lon="4.95972">
        <ele>210.19</ele>
        <time>2018-08-03T09:21:35Z</time>
      </trkpt>
      <trkpt lat="49.61699" lon="4.95978">
        <ele>210.67</ele>
        <time>2018-08-03T09:21:41Z</time>
      </trkpt>
      <trkpt lat="49.61703" lon="4.9598">
        <ele>209.7</ele>
        <time>2018-08-03T09:21:55Z</time>
      </trkpt>
      <trkpt lat="49.61704" lon="4.95979">
        <ele>208.26</ele>
        <time>2018-08-03T09:22:14Z</time>
      </trkpt>
      <trkpt lat="49.61704" lon="4.95978">
        <ele>206.34</ele>
        <time>2018-08-03T09:22:49Z</time>
      </trkpt>
      <trkpt lat="49.61704" lon="4.95977">
        <ele>204.42</ele>
        <time>2018-08-03T09:23:12Z</time>
      </trkpt>
      <trkpt lat="49.61717" lon="4.95989">
        <ele>201.05</ele>
        <time>2018-08-03T09:23:26Z</time>
      </trkpt>
      <trkpt lat="49.61734" lon="4.95992">
        <ele>204.9</ele>
        <time>2018-08-03T09:23:39Z</time>
      </trkpt>
      <trkpt lat="49.61757" lon="4.96002">
        <ele>201.05</ele>
        <time>2018-08-03T09:23:55Z</time>
      </trkpt>
      <trkpt lat="49.61772" lon="4.96005">
        <ele>195.28</ele>
        <time>2018-08-03T09:24:10Z</time>
      </trkpt>
      <trkpt lat="49.61794" lon="4.96016">
        <ele>189.52</ele>
        <time>2018-08-03T09:24:29Z</time>
      </trkpt>
      <trkpt lat="49.61813" lon="4.96026">
        <ele>186.15</ele>
        <time>2018-08-03T09:24:44Z</time>
      </trkpt>
      <trkpt lat="49.61834" lon="4.96033">
        <ele>186.15</ele>
        <time>2018-08-03T09:25:00Z</time>
      </trkpt>
      <trkpt lat="49.61855" lon="4.96037">
        <ele>187.59</ele>
        <time>2018-08-03T09:25:16Z</time>
      </trkpt>
      <trkpt lat="49.61876" lon="4.96038">
        <ele>182.79</ele>
        <time>2018-08-03T09:25:34Z</time>
      </trkpt>
      <trkpt lat="49.61892" lon="4.96041">
        <ele>181.83</ele>
        <time>2018-08-03T09:25:49Z</time>
      </trkpt>
      <trkpt lat="49.61901" lon="4.9605">
        <ele>181.35</ele>
        <time>2018-08-03T09:25:58Z</time>
      </trkpt>
      <trkpt lat="49.61909" lon="4.96047">
        <ele>182.31</ele>
        <time>2018-08-03T09:26:05Z</time>
      </trkpt>
      <trkpt lat="49.61917" lon="4.96045">
        <ele>184.71</ele>
        <time>2018-08-03T09:26:12Z</time>
      </trkpt>
      <trkpt lat="49.61932" lon="4.96048">
        <ele>182.79</ele>
        <time>2018-08-03T09:26:23Z</time>
      </trkpt>
      <trkpt lat="49.61945" lon="4.96047">
        <ele>179.9</ele>
        <time>2018-08-03T09:26:37Z</time>
      </trkpt>
      <trkpt lat="49.6196" lon="4.96048">
        <ele>180.38</ele>
        <time>2018-08-03T09:26:55Z</time>
      </trkpt>
      <trkpt lat="49.61977" lon="4.96049">
        <ele>183.75</ele>
        <time>2018-08-03T09:27:13Z</time>
      </trkpt>
      <trkpt lat="49.61994" lon="4.96042">
        <ele>185.19</ele>
        <time>2018-08-03T09:27:29Z</time>
      </trkpt>
      <trkpt lat="49.62022" lon="4.96052">
        <ele>186.15</ele>
        <time>2018-08-03T09:27:45Z</time>
      </trkpt>
      <trkpt lat="49.62033" lon="4.96048">
        <ele>186.15</ele>
        <time>2018-08-03T09:27:53Z</time>
      </trkpt>
      <trkpt lat="49.62039" lon="4.9605">
        <ele>186.15</ele>
        <time>2018-08-03T09:27:58Z</time>
      </trkpt>
      <trkpt lat="49.62045" lon="4.96049">
        <ele>184.23</ele>
        <time>2018-08-03T09:28:14Z</time>
      </trkpt>
      <trkpt lat="49.62051" lon="4.96048">
        <ele>183.27</ele>
        <time>2018-08-03T09:28:26Z</time>
      </trkpt>
      <trkpt lat="49.62067" lon="4.96044">
        <ele>182.31</ele>
        <time>2018-08-03T09:28:44Z</time>
      </trkpt>
      <trkpt lat="49.62091" lon="4.96042">
        <ele>178.94</ele>
        <time>2018-08-03T09:29:03Z</time>
      </trkpt>
      <trkpt lat="49.62108" lon="4.96028">
        <ele>174.14</ele>
        <time>2018-08-03T09:29:18Z</time>
      </trkpt>
      <trkpt lat="49.62129" lon="4.96019">
        <ele>172.21</ele>
        <time>2018-08-03T09:29:32Z</time>
      </trkpt>
      <trkpt lat="49.62149" lon="4.96015">
        <ele>172.69</ele>
        <time>2018-08-03T09:29:47Z</time>
      </trkpt>
      <trkpt lat="49.62167" lon="4.96013">
        <ele>176.06</ele>
        <time>2018-08-03T09:30:01Z</time>
      </trkpt>
      <trkpt lat="49.62173" lon="4.9601">
        <ele>177.02</ele>
        <time>2018-08-03T09:30:05Z</time>
      </trkpt>
      <trkpt lat="49.62186" lon="4.96013">
        <ele>179.42</ele>
        <time>2018-08-03T09:30:12Z</time>
      </trkpt>
      <trkpt lat="49.62205" lon="4.96005">
        <ele>184.23</ele>
        <time>2018-08-03T09:30:27Z</time>
      </trkpt>
      <trkpt lat="49.62209" lon="4.96013">
        <ele>183.75</ele>
        <time>2018-08-03T09:30:31Z</time>
      </trkpt>
      <trkpt lat="49.62214" lon="4.9603">
        <ele>186.63</ele>
        <time>2018-08-03T09:30:47Z</time>
      </trkpt>
      <trkpt lat="49.62223" lon="4.96044">
        <ele>184.71</ele>
        <time>2018-08-03T09:31:02Z</time>
      </trkpt>
      <trkpt lat="49.62241" lon="4.96053">
        <ele>179.42</ele>
        <time>2018-08-03T09:31:14Z</time>
      </trkpt>
      <trkpt lat="49.62255" lon="4.96067">
        <ele>178.94</ele>
        <time>2018-08-03T09:31:26Z</time>
      </trkpt>
      <trkpt lat="49.62267" lon="4.96084">
        <ele>179.42</ele>
        <time>2018-08-03T09:31:41Z</time>
      </trkpt>
      <trkpt lat="49.62279" lon="4.96098">
        <ele>181.35</ele>
        <time>2018-08-03T09:31:55Z</time>
      </trkpt>
      <trkpt lat="49.62285" lon="4.96098">
        <ele>181.83</ele>
        <time>2018-08-03T09:32:01Z</time>
      </trkpt>
      <trkpt lat="49.62302" lon="4.96095">
        <ele>182.79</ele>
        <time>2018-08-03T09:32:13Z</time>
      </trkpt>
      <trkpt lat="49.62313" lon="4.9609">
        <ele>182.31</ele>
        <time>2018-08-03T09:32:29Z</time>
      </trkpt>
      <trkpt lat="49.62317" lon="4.96088">
        <ele>182.31</ele>
        <time>2018-08-03T09:32:34Z</time>
      </trkpt>
      <trkpt lat="49.6232" lon="4.96087">
        <ele>182.31</ele>
        <time>2018-08-03T09:32:36Z</time>
      </trkpt>
      <trkpt lat="49.62342" lon="4.96098">
        <ele>187.11</ele>
        <time>2018-08-03T09:32:51Z</time>
      </trkpt>
      <trkpt lat="49.62357" lon="4.96103">
        <ele>191.44</ele>
        <time>2018-08-03T09:33:04Z</time>
      </trkpt>
      <trkpt lat="49.62366" lon="4.96107">
        <ele>194.32</ele>
        <time>2018-08-03T09:33:10Z</time>
      </trkpt>
      <trkpt lat="49.62369" lon="4.96109">
        <ele>195.28</ele>
        <time>2018-08-03T09:33:13Z</time>
      </trkpt>
      <trkpt lat="49.62373" lon="4.96098">
        <ele>194.8</ele>
        <time>2018-08-03T09:33:28Z</time>
      </trkpt>
      <trkpt lat="49.62373" lon="4.96097">
        <ele>191.92</ele>
        <time>2018-08-03T09:33:47Z</time>
      </trkpt>
      <trkpt lat="49.62373" lon="4.96097">
        <ele>191.44</ele>
        <time>2018-08-03T09:33:51Z</time>
      </trkpt>
      <trkpt lat="49.6237" lon="4.96106">
        <ele>193.36</ele>
        <time>2018-08-03T09:34:02Z</time>
      </trkpt>
      <trkpt lat="49.6237" lon="4.96107">
        <ele>191.92</ele>
        <time>2018-08-03T09:34:17Z</time>
      </trkpt>
      <trkpt lat="49.62374" lon="4.96118">
        <ele>192.88</ele>
        <time>2018-08-03T09:34:31Z</time>
      </trkpt>
      <trkpt lat="49.62386" lon="4.96117">
        <ele>196.25</ele>
        <time>2018-08-03T09:34:45Z</time>
      </trkpt>
      <trkpt lat="49.62402" lon="4.96117">
        <ele>200.09</ele>
        <time>2018-08-03T09:35:03Z</time>
      </trkpt>
      <trkpt lat="49.62413" lon="4.96114">
        <ele>198.65</ele>
        <time>2018-08-03T09:35:15Z</time>
      </trkpt>
      <trkpt lat="49.62435" lon="4.96113">
        <ele>200.09</ele>
        <time>2018-08-03T09:35:31Z</time>
      </trkpt>
      <trkpt lat="49.62436" lon="4.96136">
        <ele>195.77</ele>
        <time>2018-08-03T09:35:53Z</time>
      </trkpt>
      <trkpt lat="49.62436" lon="4.96136">
        <ele>195.77</ele>
        <time>2018-08-03T09:35:59Z</time>
      </trkpt>
      <trkpt lat="49.62442" lon="4.9613">
        <ele>196.25</ele>
        <time>2018-08-03T09:36:04Z</time>
      </trkpt>
      <trkpt lat="49.62463" lon="4.96132">
        <ele>197.69</ele>
        <time>2018-08-03T09:36:20Z</time>
      </trkpt>
      <trkpt lat="49.62479" lon="4.96149">
        <ele>193.36</ele>
        <time>2018-08-03T09:36:33Z</time>
      </trkpt>
      <trkpt lat="49.62494" lon="4.96152">
        <ele>189.04</ele>
        <time>2018-08-03T09:36:47Z</time>
      </trkpt>
      <trkpt lat="49.62509" lon="4.9616">
        <ele>184.23</ele>
        <time>2018-08-03T09:37:02Z</time>
      </trkpt>
      <trkpt lat="49.62524" lon="4.96166">
        <ele>184.23</ele>
        <time>2018-08-03T09:37:14Z</time>
      </trkpt>
      <trkpt lat="49.62546" lon="4.96174">
        <ele>187.59</ele>
        <time>2018-08-03T09:37:29Z</time>
      </trkpt>
      <trkpt lat="49.62554" lon="4.96178">
        <ele>186.63</ele>
        <time>2018-08-03T09:37:45Z</time>
      </trkpt>
      <trkpt lat="49.62557" lon="4.96176">
        <ele>186.63</ele>
        <time>2018-08-03T09:37:51Z</time>
      </trkpt>
      <trkpt lat="49.62579" lon="4.96173">
        <ele>187.11</ele>
        <time>2018-08-03T09:38:06Z</time>
      </trkpt>
      <trkpt lat="49.62585" lon="4.96177">
        <ele>187.11</ele>
        <time>2018-08-03T09:38:14Z</time>
      </trkpt>
      <trkpt lat="49.62602" lon="4.96193">
        <ele>183.27</ele>
        <time>2018-08-03T09:38:27Z</time>
      </trkpt>
      <trkpt lat="49.62617" lon="4.962">
        <ele>180.38</ele>
        <time>2018-08-03T09:38:44Z</time>
      </trkpt>
      <trkpt lat="49.62621" lon="4.962">
        <ele>180.87</ele>
        <time>2018-08-03T09:38:49Z</time>
      </trkpt>
      <trkpt lat="49.6264" lon="4.96202">
        <ele>178.94</ele>
        <time>2018-08-03T09:39:06Z</time>
      </trkpt>
      <trkpt lat="49.62658" lon="4.96209">
        <ele>177.98</ele>
        <time>2018-08-03T09:39:26Z</time>
      </trkpt>
      <trkpt lat="49.62669" lon="4.9621">
        <ele>176.06</ele>
        <time>2018-08-03T09:39:35Z</time>
      </trkpt>
      <trkpt lat="49.62687" lon="4.96217">
        <ele>174.62</ele>
        <time>2018-08-03T09:39:45Z</time>
      </trkpt>
      <trkpt lat="49.62703" lon="4.96223">
        <ele>177.02</ele>
        <time>2018-08-03T09:39:59Z</time>
      </trkpt>
      <trkpt lat="49.62721" lon="4.96233">
        <ele>175.58</ele>
        <time>2018-08-03T09:40:13Z</time>
      </trkpt>
      <trkpt lat="49.62738" lon="4.96248">
        <ele>176.06</ele>
        <time>2018-08-03T09:40:30Z</time>
      </trkpt>
      <trkpt lat="49.62752" lon="4.96258">
        <ele>176.54</ele>
        <time>2018-08-03T09:40:45Z</time>
      </trkpt>
      <trkpt lat="49.62769" lon="4.96272">
        <ele>175.58</ele>
        <time>2018-08-03T09:41:01Z</time>
      </trkpt>
      <trkpt lat="49.62785" lon="4.96284">
        <ele>177.5</ele>
        <time>2018-08-03T09:41:14Z</time>
      </trkpt>
      <trkpt lat="49.628" lon="4.96295">
        <ele>178.46</ele>
        <time>2018-08-03T09:41:28Z</time>
      </trkpt>
      <trkpt lat="49.62815" lon="4.96302">
        <ele>179.9</ele>
        <time>2018-08-03T09:41:41Z</time>
      </trkpt>
      <trkpt lat="49.62826" lon="4.96299">
        <ele>177.98</ele>
        <time>2018-08-03T09:41:53Z</time>
      </trkpt>
      <trkpt lat="49.6284" lon="4.963">
        <ele>176.54</ele>
        <time>2018-08-03T09:42:06Z</time>
      </trkpt>
      <trkpt lat="49.62848" lon="4.96308">
        <ele>178.46</ele>
        <time>2018-08-03T09:42:13Z</time>
      </trkpt>
      <trkpt lat="49.62854" lon="4.96312">
        <ele>180.38</ele>
        <time>2018-08-03T09:42:20Z</time>
      </trkpt>
      <trkpt lat="49.62854" lon="4.96315">
        <ele>180.87</ele>
        <time>2018-08-03T09:42:22Z</time>
      </trkpt>
      <trkpt lat="49.62874" lon="4.96327">
        <ele>183.75</ele>
        <time>2018-08-03T09:42:39Z</time>
      </trkpt>
      <trkpt lat="49.62875" lon="4.96328">
        <ele>183.75</ele>
        <time>2018-08-03T09:42:40Z</time>
      </trkpt>
      <trkpt lat="49.62894" lon="4.9634">
        <ele>182.79</ele>
        <time>2018-08-03T09:42:56Z</time>
      </trkpt>
      <trkpt lat="49.6291" lon="4.96351">
        <ele>179.9</ele>
        <time>2018-08-03T09:43:12Z</time>
      </trkpt>
      <trkpt lat="49.62926" lon="4.96362">
        <ele>177.02</ele>
        <time>2018-08-03T09:43:27Z</time>
      </trkpt>
      <trkpt lat="49.6294" lon="4.96372">
        <ele>177.02</ele>
        <time>2018-08-03T09:43:41Z</time>
      </trkpt>
      <trkpt lat="49.62955" lon="4.96381">
        <ele>175.1</ele>
        <time>2018-08-03T09:43:56Z</time>
      </trkpt>
      <trkpt lat="49.62976" lon="4.96399">
        <ele>174.62</ele>
        <time>2018-08-03T09:44:16Z</time>
      </trkpt>
      <trkpt lat="49.62986" lon="4.96411">
        <ele>174.62</ele>
        <time>2018-08-03T09:44:27Z</time>
      </trkpt>
      <trkpt lat="49.62994" lon="4.96415">
        <ele>175.1</ele>
        <time>2018-08-03T09:44:32Z</time>
      </trkpt>
      <trkpt lat="49.63009" lon="4.96425">
        <ele>176.06</ele>
        <time>2018-08-03T09:44:46Z</time>
      </trkpt>
      <trkpt lat="49.63023" lon="4.96433">
        <ele>175.58</ele>
        <time>2018-08-03T09:44:59Z</time>
      </trkpt>
      <trkpt lat="49.63032" lon="4.96438">
        <ele>175.1</ele>
        <time>2018-08-03T09:45:06Z</time>
      </trkpt>
      <trkpt lat="49.63049" lon="4.96451">
        <ele>174.62</ele>
        <time>2018-08-03T09:45:23Z</time>
      </trkpt>
      <trkpt lat="49.63066" lon="4.96463">
        <ele>174.14</ele>
        <time>2018-08-03T09:45:37Z</time>
      </trkpt>
      <trkpt lat="49.63082" lon="4.96474">
        <ele>174.14</ele>
        <time>2018-08-03T09:45:54Z</time>
      </trkpt>
      <trkpt lat="49.63099" lon="4.96485">
        <ele>175.1</ele>
        <time>2018-08-03T09:46:07Z</time>
      </trkpt>
      <trkpt lat="49.63114" lon="4.96494">
        <ele>174.14</ele>
        <time>2018-08-03T09:46:23Z</time>
      </trkpt>
      <trkpt lat="49.6313" lon="4.96503">
        <ele>173.66</ele>
        <time>2018-08-03T09:46:39Z</time>
      </trkpt>
      <trkpt lat="49.63137" lon="4.96508">
        <ele>173.66</ele>
        <time>2018-08-03T09:46:45Z</time>
      </trkpt>
      <trkpt lat="49.6315" lon="4.96516">
        <ele>171.25</ele>
        <time>2018-08-03T09:46:58Z</time>
      </trkpt>
      <trkpt lat="49.63161" lon="4.96522">
        <ele>170.77</ele>
        <time>2018-08-03T09:47:11Z</time>
      </trkpt>
      <trkpt lat="49.63172" lon="4.96529">
        <ele>169.81</ele>
        <time>2018-08-03T09:47:24Z</time>
      </trkpt>
      <trkpt lat="49.63181" lon="4.96535">
        <ele>169.33</ele>
        <time>2018-08-03T09:47:31Z</time>
      </trkpt>
      <trkpt lat="49.63195" lon="4.96545">
        <ele>168.85</ele>
        <time>2018-08-03T09:47:46Z</time>
      </trkpt>
      <trkpt lat="49.63209" lon="4.96555">
        <ele>169.33</ele>
        <time>2018-08-03T09:47:57Z</time>
      </trkpt>
      <trkpt lat="49.63222" lon="4.96563">
        <ele>171.25</ele>
        <time>2018-08-03T09:48:11Z</time>
      </trkpt>
      <trkpt lat="49.63241" lon="4.96577">
        <ele>173.66</ele>
        <time>2018-08-03T09:48:25Z</time>
      </trkpt>
      <trkpt lat="49.63261" lon="4.96591">
        <ele>177.02</ele>
        <time>2018-08-03T09:48:43Z</time>
      </trkpt>
      <trkpt lat="49.63274" lon="4.96601">
        <ele>177.5</ele>
        <time>2018-08-03T09:48:58Z</time>
      </trkpt>
      <trkpt lat="49.63282" lon="4.96608">
        <ele>175.1</ele>
        <time>2018-08-03T09:49:11Z</time>
      </trkpt>
      <trkpt lat="49.63283" lon="4.96607">
        <ele>173.66</ele>
        <time>2018-08-03T09:49:34Z</time>
      </trkpt>
      <trkpt lat="49.63284" lon="4.96613">
        <ele>172.69</ele>
        <time>2018-08-03T09:49:46Z</time>
      </trkpt>
      <trkpt lat="49.63286" lon="4.96612">
        <ele>173.66</ele>
        <time>2018-08-03T09:50:03Z</time>
      </trkpt>
      <trkpt lat="49.63287" lon="4.96611">
        <ele>172.69</ele>
        <time>2018-08-03T09:50:22Z</time>
      </trkpt>
      <trkpt lat="49.63289" lon="4.96626">
        <ele>171.73</ele>
        <time>2018-08-03T09:50:37Z</time>
      </trkpt>
      <trkpt lat="49.6329" lon="4.96628">
        <ele>171.73</ele>
        <time>2018-08-03T09:50:47Z</time>
      </trkpt>
      <trkpt lat="49.63297" lon="4.96647">
        <ele>171.73</ele>
        <time>2018-08-03T09:51:02Z</time>
      </trkpt>
      <trkpt lat="49.63303" lon="4.96666">
        <ele>170.29</ele>
        <time>2018-08-03T09:51:13Z</time>
      </trkpt>
      <trkpt lat="49.63318" lon="4.96691">
        <ele>171.73</ele>
        <time>2018-08-03T09:51:31Z</time>
      </trkpt>
      <trkpt lat="49.63328" lon="4.96705">
        <ele>170.29</ele>
        <time>2018-08-03T09:51:42Z</time>
      </trkpt>
      <trkpt lat="49.63333" lon="4.96733">
        <ele>166.45</ele>
        <time>2018-08-03T09:51:58Z</time>
      </trkpt>
      <trkpt lat="49.63336" lon="4.96757">
        <ele>166.45</ele>
        <time>2018-08-03T09:52:14Z</time>
      </trkpt>
      <trkpt lat="49.63341" lon="4.96781">
        <ele>167.41</ele>
        <time>2018-08-03T09:52:28Z</time>
      </trkpt>
      <trkpt lat="49.6335" lon="4.968">
        <ele>169.33</ele>
        <time>2018-08-03T09:52:42Z</time>
      </trkpt>
      <trkpt lat="49.63361" lon="4.96821">
        <ele>170.29</ele>
        <time>2018-08-03T09:52:57Z</time>
      </trkpt>
      <trkpt lat="49.6336" lon="4.96823">
        <ele>169.81</ele>
        <time>2018-08-03T09:53:19Z</time>
      </trkpt>
      <trkpt lat="49.63367" lon="4.9683">
        <ele>169.81</ele>
        <time>2018-08-03T09:53:32Z</time>
      </trkpt>
      <trkpt lat="49.63373" lon="4.96839">
        <ele>170.29</ele>
        <time>2018-08-03T09:53:42Z</time>
      </trkpt>
      <trkpt lat="49.63385" lon="4.96855">
        <ele>172.69</ele>
        <time>2018-08-03T09:53:55Z</time>
      </trkpt>
      <trkpt lat="49.63386" lon="4.96857">
        <ele>173.17</ele>
        <time>2018-08-03T09:53:56Z</time>
      </trkpt>
      <trkpt lat="49.63397" lon="4.9687">
        <ele>173.66</ele>
        <time>2018-08-03T09:54:09Z</time>
      </trkpt>
      <trkpt lat="49.63411" lon="4.96884">
        <ele>173.66</ele>
        <time>2018-08-03T09:54:23Z</time>
      </trkpt>
      <trkpt lat="49.63424" lon="4.96899">
        <ele>174.14</ele>
        <time>2018-08-03T09:54:38Z</time>
      </trkpt>
      <trkpt lat="49.63425" lon="4.969">
        <ele>174.14</ele>
        <time>2018-08-03T09:54:39Z</time>
      </trkpt>
      <trkpt lat="49.63436" lon="4.96912">
        <ele>174.62</ele>
        <time>2018-08-03T09:54:54Z</time>
      </trkpt>
      <trkpt lat="49.63448" lon="4.96928">
        <ele>176.54</ele>
        <time>2018-08-03T09:55:08Z</time>
      </trkpt>
      <trkpt lat="49.63453" lon="4.96937">
        <ele>177.02</ele>
        <time>2018-08-03T09:55:14Z</time>
      </trkpt>
      <trkpt lat="49.6346" lon="4.96949">
        <ele>176.54</ele>
        <time>2018-08-03T09:55:24Z</time>
      </trkpt>
      <trkpt lat="49.63465" lon="4.9696">
        <ele>176.54</ele>
        <time>2018-08-03T09:55:33Z</time>
      </trkpt>
      <trkpt lat="49.6347" lon="4.96987">
        <ele>176.54</ele>
        <time>2018-08-03T09:55:48Z</time>
      </trkpt>
      <trkpt lat="49.63474" lon="4.97012">
        <ele>178.46</ele>
        <time>2018-08-03T09:56:02Z</time>
      </trkpt>
      <trkpt lat="49.63481" lon="4.97038">
        <ele>178.94</ele>
        <time>2018-08-03T09:56:16Z</time>
      </trkpt>
      <trkpt lat="49.63485" lon="4.97047">
        <ele>179.42</ele>
        <time>2018-08-03T09:56:23Z</time>
      </trkpt>
      <trkpt lat="49.63491" lon="4.97069">
        <ele>178.94</ele>
        <time>2018-08-03T09:56:39Z</time>
      </trkpt>
      <trkpt lat="49.63491" lon="4.97069">
        <ele>178.94</ele>
        <time>2018-08-03T09:56:43Z</time>
      </trkpt>
      <trkpt lat="49.63497" lon="4.97091">
        <ele>178.94</ele>
        <time>2018-08-03T09:56:58Z</time>
      </trkpt>
      <trkpt lat="49.63502" lon="4.97116">
        <ele>180.38</ele>
        <time>2018-08-03T09:57:14Z</time>
      </trkpt>
      <trkpt lat="49.63509" lon="4.97139">
        <ele>181.35</ele>
        <time>2018-08-03T09:57:29Z</time>
      </trkpt>
      <trkpt lat="49.63515" lon="4.97159">
        <ele>182.79</ele>
        <time>2018-08-03T09:57:41Z</time>
      </trkpt>
      <trkpt lat="49.63521" lon="4.97184">
        <ele>182.79</ele>
        <time>2018-08-03T09:57:56Z</time>
      </trkpt>
      <trkpt lat="49.63531" lon="4.97212">
        <ele>182.79</ele>
        <time>2018-08-03T09:58:13Z</time>
      </trkpt>
      <trkpt lat="49.63537" lon="4.97235">
        <ele>183.27</ele>
        <time>2018-08-03T09:58:29Z</time>
      </trkpt>
      <trkpt lat="49.63542" lon="4.97261">
        <ele>184.23</ele>
        <time>2018-08-03T09:58:45Z</time>
      </trkpt>
      <trkpt lat="49.6355" lon="4.97288">
        <ele>183.75</ele>
        <time>2018-08-03T09:59:01Z</time>
      </trkpt>
      <trkpt lat="49.63554" lon="4.97298">
        <ele>183.27</ele>
        <time>2018-08-03T09:59:08Z</time>
      </trkpt>
      <trkpt lat="49.63562" lon="4.97324">
        <ele>182.31</ele>
        <time>2018-08-03T09:59:24Z</time>
      </trkpt>
      <trkpt lat="49.63562" lon="4.97328">
        <ele>181.83</ele>
        <time>2018-08-03T09:59:26Z</time>
      </trkpt>
      <trkpt lat="49.63555" lon="4.97348">
        <ele>179.9</ele>
        <time>2018-08-03T09:59:42Z</time>
      </trkpt>
      <trkpt lat="49.63554" lon="4.97349">
        <ele>179.9</ele>
        <time>2018-08-03T09:59:43Z</time>
      </trkpt>
      <trkpt lat="49.63546" lon="4.97366">
        <ele>179.9</ele>
        <time>2018-08-03T09:59:54Z</time>
      </trkpt>
      <trkpt lat="49.63534" lon="4.97393">
        <ele>176.54</ele>
        <time>2018-08-03T10:00:14Z</time>
      </trkpt>
      <trkpt lat="49.63527" lon="4.97411">
        <ele>171.25</ele>
        <time>2018-08-03T10:00:30Z</time>
      </trkpt>
      <trkpt lat="49.63521" lon="4.97422">
        <ele>169.81</ele>
        <time>2018-08-03T10:00:44Z</time>
      </trkpt>
      <trkpt lat="49.63515" lon="4.97437">
        <ele>168.85</ele>
        <time>2018-08-03T10:00:58Z</time>
      </trkpt>
      <trkpt lat="49.63513" lon="4.97451">
        <ele>168.37</ele>
        <time>2018-08-03T10:01:13Z</time>
      </trkpt>
      <trkpt lat="49.6352" lon="4.97465">
        <ele>169.33</ele>
        <time>2018-08-03T10:01:25Z</time>
      </trkpt>
      <trkpt lat="49.63535" lon="4.97482">
        <ele>170.29</ele>
        <time>2018-08-03T10:01:41Z</time>
      </trkpt>
      <trkpt lat="49.6354" lon="4.97489">
        <ele>171.25</ele>
        <time>2018-08-03T10:01:48Z</time>
      </trkpt>
      <trkpt lat="49.63545" lon="4.97495">
        <ele>172.69</ele>
        <time>2018-08-03T10:01:55Z</time>
      </trkpt>
      <trkpt lat="49.63556" lon="4.97516">
        <ele>174.62</ele>
        <time>2018-08-03T10:02:10Z</time>
      </trkpt>
      <trkpt lat="49.63556" lon="4.97518">
        <ele>174.14</ele>
        <time>2018-08-03T10:02:12Z</time>
      </trkpt>
      <trkpt lat="49.63559" lon="4.97542">
        <ele>173.66</ele>
        <time>2018-08-03T10:02:27Z</time>
      </trkpt>
      <trkpt lat="49.63563" lon="4.97562">
        <ele>173.17</ele>
        <time>2018-08-03T10:02:41Z</time>
      </trkpt>
      <trkpt lat="49.63566" lon="4.97574">
        <ele>172.21</ele>
        <time>2018-08-03T10:02:50Z</time>
      </trkpt>
      <trkpt lat="49.63579" lon="4.97602">
        <ele>167.41</ele>
        <time>2018-08-03T10:03:08Z</time>
      </trkpt>
      <trkpt lat="49.63583" lon="4.9761">
        <ele>166.45</ele>
        <time>2018-08-03T10:03:13Z</time>
      </trkpt>
      <trkpt lat="49.63588" lon="4.97617">
        <ele>165.96</ele>
        <time>2018-08-03T10:03:19Z</time>
      </trkpt>
      <trkpt lat="49.63599" lon="4.97633">
        <ele>162.12</ele>
        <time>2018-08-03T10:03:34Z</time>
      </trkpt>
      <trkpt lat="49.63605" lon="4.97643">
        <ele>163.56</ele>
        <time>2018-08-03T10:03:46Z</time>
      </trkpt>
      <trkpt lat="49.63609" lon="4.97653">
        <ele>164.52</ele>
        <time>2018-08-03T10:04:00Z</time>
      </trkpt>
      <trkpt lat="49.63609" lon="4.97654">
        <ele>165</ele>
        <time>2018-08-03T10:04:05Z</time>
      </trkpt>
      <trkpt lat="49.63603" lon="4.97658">
        <ele>165.48</ele>
        <time>2018-08-03T10:04:14Z</time>
      </trkpt>
      <trkpt lat="49.63598" lon="4.97665">
        <ele>165.96</ele>
        <time>2018-08-03T10:04:19Z</time>
      </trkpt>
      <trkpt lat="49.63585" lon="4.97682">
        <ele>165</ele>
        <time>2018-08-03T10:04:34Z</time>
      </trkpt>
      <trkpt lat="49.63575" lon="4.97699">
        <ele>163.56</ele>
        <time>2018-08-03T10:04:48Z</time>
      </trkpt>
      <trkpt lat="49.63561" lon="4.97714">
        <ele>162.12</ele>
        <time>2018-08-03T10:05:04Z</time>
      </trkpt>
      <trkpt lat="49.63547" lon="4.97732">
        <ele>165.96</ele>
        <time>2018-08-03T10:05:19Z</time>
      </trkpt>
      <trkpt lat="49.63537" lon="4.97752">
        <ele>167.89</ele>
        <time>2018-08-03T10:05:34Z</time>
      </trkpt>
      <trkpt lat="49.63533" lon="4.97759">
        <ele>167.89</ele>
        <time>2018-08-03T10:05:39Z</time>
      </trkpt>
      <trkpt lat="49.63522" lon="4.97778">
        <ele>166.45</ele>
        <time>2018-08-03T10:05:56Z</time>
      </trkpt>
      <trkpt lat="49.63511" lon="4.97793">
        <ele>163.08</ele>
        <time>2018-08-03T10:06:11Z</time>
      </trkpt>
      <trkpt lat="49.63497" lon="4.97811">
        <ele>162.12</ele>
        <time>2018-08-03T10:06:28Z</time>
      </trkpt>
      <trkpt lat="49.63485" lon="4.9783">
        <ele>163.08</ele>
        <time>2018-08-03T10:06:44Z</time>
      </trkpt>
      <trkpt lat="49.63476" lon="4.97849">
        <ele>165</ele>
        <time>2018-08-03T10:06:58Z</time>
      </trkpt>
      <trkpt lat="49.63469" lon="4.97856">
        <ele>165.48</ele>
        <time>2018-08-03T10:07:11Z</time>
      </trkpt>
      <trkpt lat="49.63469" lon="4.97858">
        <ele>167.89</ele>
        <time>2018-08-03T10:07:33Z</time>
      </trkpt>
      <trkpt lat="49.6347" lon="4.97859">
        <ele>168.85</ele>
        <time>2018-08-03T10:08:00Z</time>
      </trkpt>
      <trkpt lat="49.6347" lon="4.9786">
        <ele>169.33</ele>
        <time>2018-08-03T10:08:21Z</time>
      </trkpt>
      <trkpt lat="49.63471" lon="4.9786">
        <ele>170.29</ele>
        <time>2018-08-03T10:08:53Z</time>
      </trkpt>
      <trkpt lat="49.63471" lon="4.97861">
        <ele>170.29</ele>
        <time>2018-08-03T10:09:09Z</time>
      </trkpt>
      <trkpt lat="49.63457" lon="4.97877">
        <ele>172.21</ele>
        <time>2018-08-03T10:09:23Z</time>
      </trkpt>
      <trkpt lat="49.63442" lon="4.97891">
        <ele>173.17</ele>
        <time>2018-08-03T10:09:37Z</time>
      </trkpt>
      <trkpt lat="49.6343" lon="4.979">
        <ele>175.58</ele>
        <time>2018-08-03T10:09:51Z</time>
      </trkpt>
      <trkpt lat="49.63412" lon="4.97908">
        <ele>174.14</ele>
        <time>2018-08-03T10:10:05Z</time>
      </trkpt>
      <trkpt lat="49.63407" lon="4.97914">
        <ele>174.62</ele>
        <time>2018-08-03T10:10:21Z</time>
      </trkpt>
      <trkpt lat="49.63393" lon="4.97927">
        <ele>174.62</ele>
        <time>2018-08-03T10:10:35Z</time>
      </trkpt>
      <trkpt lat="49.63388" lon="4.97942">
        <ele>174.14</ele>
        <time>2018-08-03T10:10:46Z</time>
      </trkpt>
      <trkpt lat="49.63396" lon="4.97962">
        <ele>175.1</ele>
        <time>2018-08-03T10:11:00Z</time>
      </trkpt>
      <trkpt lat="49.63403" lon="4.97981">
        <ele>176.54</ele>
        <time>2018-08-03T10:11:14Z</time>
      </trkpt>
      <trkpt lat="49.63413" lon="4.97999">
        <ele>176.54</ele>
        <time>2018-08-03T10:11:28Z</time>
      </trkpt>
      <trkpt lat="49.63421" lon="4.98017">
        <ele>176.06</ele>
        <time>2018-08-03T10:11:42Z</time>
      </trkpt>
      <trkpt lat="49.63423" lon="4.98021">
        <ele>176.06</ele>
        <time>2018-08-03T10:11:45Z</time>
      </trkpt>
      <trkpt lat="49.63436" lon="4.98036">
        <ele>177.02</ele>
        <time>2018-08-03T10:12:00Z</time>
      </trkpt>
      <trkpt lat="49.63441" lon="4.98043">
        <ele>175.1</ele>
        <time>2018-08-03T10:12:16Z</time>
      </trkpt>
      <trkpt lat="49.63442" lon="4.98041">
        <ele>177.5</ele>
        <time>2018-08-03T10:12:33Z</time>
      </trkpt>
      <trkpt lat="49.63442" lon="4.98039">
        <ele>177.5</ele>
        <time>2018-08-03T10:12:47Z</time>
      </trkpt>
      <trkpt lat="49.63444" lon="4.98037">
        <ele>177.98</ele>
        <time>2018-08-03T10:13:02Z</time>
      </trkpt>
      <trkpt lat="49.63461" lon="4.9803">
        <ele>173.17</ele>
        <time>2018-08-03T10:20:24Z</time>
      </trkpt>
      <trkpt lat="49.63465" lon="4.98023">
        <ele>181.83</ele>
        <time>2018-08-03T10:20:36Z</time>
      </trkpt>
      <trkpt lat="49.63466" lon="4.98026">
        <ele>179.9</ele>
        <time>2018-08-03T10:20:58Z</time>
      </trkpt>
      <trkpt lat="49.63466" lon="4.98027">
        <ele>179.9</ele>
        <time>2018-08-03T10:21:19Z</time>
      </trkpt>
      <trkpt lat="49.63466" lon="4.98026">
        <ele>179.9</ele>
        <time>2018-08-03T10:21:46Z</time>
      </trkpt>
      <trkpt lat="49.63465" lon="4.98027">
        <ele>179.9</ele>
        <time>2018-08-03T10:21:54Z</time>
      </trkpt>
      <trkpt lat="49.63588" lon="4.98186">
        <ele>204.9</ele>
        <time>2018-08-03T13:00:44Z</time>
      </trkpt>
      <trkpt lat="49.63572" lon="4.98288">
        <ele>205.38</ele>
        <time>2018-08-03T13:00:56Z</time>
      </trkpt>
      <trkpt lat="49.63555" lon="4.98257">
        <ele>205.38</ele>
        <time>2018-08-03T13:01:05Z</time>
      </trkpt>
      <trkpt lat="49.63535" lon="4.9822">
        <ele>205.86</ele>
        <time>2018-08-03T13:01:14Z</time>
      </trkpt>
      <trkpt lat="49.63501" lon="4.98155">
        <ele>190.48</ele>
        <time>2018-08-03T13:01:26Z</time>
      </trkpt>
      <trkpt lat="49.63502" lon="4.98153">
        <ele>197.69</ele>
        <time>2018-08-03T13:01:29Z</time>
      </trkpt>
      <trkpt lat="49.63457" lon="4.9811">
        <ele>161.16</ele>
        <time>2018-08-03T13:01:42Z</time>
      </trkpt>
      <trkpt lat="49.63432" lon="4.98076">
        <ele>144.82</ele>
        <time>2018-08-03T13:01:57Z</time>
      </trkpt>
      <trkpt lat="49.63421" lon="4.98051">
        <ele>140.97</ele>
        <time>2018-08-03T13:02:16Z</time>
      </trkpt>
      <trkpt lat="49.63411" lon="4.98093">
        <ele>123.19</ele>
        <time>2018-08-03T13:02:39Z</time>
      </trkpt>
      <trkpt lat="49.63423" lon="4.98082">
        <ele>127.51</ele>
        <time>2018-08-03T13:03:07Z</time>
      </trkpt>
      <trkpt lat="49.63433" lon="4.98077">
        <ele>132.8</ele>
        <time>2018-08-03T13:03:42Z</time>
      </trkpt>
      <trkpt lat="49.63436" lon="4.98065">
        <ele>134.24</ele>
        <time>2018-08-03T13:04:09Z</time>
      </trkpt>
      <trkpt lat="49.63451" lon="4.98048">
        <ele>149.62</ele>
        <time>2018-08-03T13:04:41Z</time>
      </trkpt>
      <trkpt lat="49.63456" lon="4.98034">
        <ele>164.52</ele>
        <time>2018-08-03T13:05:18Z</time>
      </trkpt>
      <trkpt lat="49.63458" lon="4.9803">
        <ele>170.77</ele>
        <time>2018-08-03T13:05:58Z</time>
      </trkpt>
      <trkpt lat="49.63459" lon="4.98031">
        <ele>174.14</ele>
        <time>2018-08-03T13:06:25Z</time>
      </trkpt>
    </trkseg>
  </trk>
</gpx>